NOAA Web Site Link Tides and Currents Home Page Transparent placeholder image

PORTS® Data Listing: 8638610 Sewells Point, VA

CO-OPS RAW PORTS DATA

************************      PRELIMINARY DATA      ************************** 

     THIS RAW DATA HAS NOT BEEN SUBJECT TO THE NATIONAL OCEAN SERVICE'S        
     QUALITY CONTROL OR QUALITY ASSURANCE PROCEDURES AND DOES NOT MEET         
     THE CRITERIA AND STANDARDS OF OFFICIAL NATIONAL OCEAN SERVICE             
     DATA.  IT IS RELEASED FOR LIMITED PUBLIC USE AS PRELIMINARY DATA TO       
     BE USED ONLY WITH APPROPRIATE CAUTION.                                    

************************      PRELIMINARY DATA      ************************** 


       CD   -   Calendar date
       T    -   Time
       TZ   -   Timezone
       PW   -   Predicted water level (feet above MLLW)
       OW   -   Observed water level (feet above MLLW)
       WS   -   Wind speed (knots)
       WD   -   Wind direction (degrees true)
       WG   -   Wind gust (knots)
       AT   -   Air temperature (degrees farenheit)
       WT   -   Water temperature (degrees farenheit)
       AP   -   Air pressure (millibars)
       SA   -   Salinty (PSU - Practical Salinity Units)
       SG   -   Specific gravity
       RH   -   Relative humidity
       AG   -   Air gap (feet)
       VI   -   Visibility (nautical miles)

       ** NOTE **
       A variable that has its data fields filled with "9"s, indicates that
       data was not collected for that sample period.
       **********


STATION NAME: Sewells Point (8638610)
****************************************************************************************************
    CD       T    TZ    PW     OW    WS   WD   WG    AT    WT    AP    SA    SG     RH    AG   VI
****************************************************************************************************
2019/08/22 21:42 EDT    0.73   0.79 -999 -999 -999 -99.9  81.5 1015.2 23.6  1.015 -99.9 -99.99 -9.99
2019/08/22 21:48 EDT    0.75   0.83 -999 -999 -999 -99.9  81.5 1015.4 23.6  1.015 -99.9 -99.99 -9.99
2019/08/22 21:54 EDT    0.77   0.83 -999 -999 -999 -99.9  81.5 1015.2 23.6  1.015 -99.9 -99.99 -9.99
2019/08/22 22:00 EDT    0.79   0.82 -999 -999 -999 -99.9  81.5 1015.2 23.6  1.015 -99.9 -99.99 -9.99
2019/08/22 22:06 EDT    0.82   0.78 -999 -999 -999 -99.9  81.5 1015.3 23.6  1.015 -99.9 -99.99 -9.99
2019/08/22 22:12 EDT    0.85   0.78 -999 -999 -999 -99.9  81.5 1015.1 23.6  1.015 -99.9 -99.99 -9.99
2019/08/22 22:18 EDT    0.88   0.78 -999 -999 -999 -99.9  81.5 1015.0 23.2  1.015 -99.9 -99.99 -9.99
2019/08/22 22:24 EDT    0.91   0.76 -999 -999 -999 -99.9  81.5 1015.0 23.3  1.015 -99.9 -99.99 -9.99
2019/08/22 22:30 EDT    0.94   0.74 -999 -999 -999 -99.9  81.5 1014.9 23.3  1.015 -99.9 -99.99 -9.99
2019/08/22 22:36 EDT    0.97   0.73 -999 -999 -999 -99.9  81.5 1014.8 23.3  1.015 -99.9 -99.99 -9.99
2019/08/22 22:42 EDT    1.01   0.73 -999 -999 -999 -99.9  81.5 1014.8 23.3  1.015 -99.9 -99.99 -9.99
2019/08/22 22:48 EDT    1.05   0.75 -999 -999 -999 -99.9  81.5 1014.9 23.2  1.015 -99.9 -99.99 -9.99
2019/08/22 22:54 EDT    1.09   0.78 -999 -999 -999 -99.9  81.5 1014.8 23.2  1.015 -99.9 -99.99 -9.99
2019/08/22 23:00 EDT    1.12   0.83 -999 -999 -999 -99.9  81.5 1014.7 23.2  1.015 -99.9 -99.99 -9.99
2019/08/22 23:06 EDT    1.16   0.87 -999 -999 -999 -99.9  81.5 1014.6 23.2  1.015 -99.9 -99.99 -9.99
2019/08/22 23:12 EDT    1.21   0.89 -999 -999 -999 -99.9  81.5 1014.5 23.2  1.015 -99.9 -99.99 -9.99
2019/08/22 23:18 EDT    1.25   0.92 -999 -999 -999 -99.9  81.5 1014.4 23.2  1.015 -99.9 -99.99 -9.99
2019/08/22 23:24 EDT    1.29   0.99 -999 -999 -999 -99.9  81.5 1014.4 23.2  1.015 -99.9 -99.99 -9.99
2019/08/22 23:30 EDT    1.33   1.02 -999 -999 -999 -99.9  81.5 1014.4 23.5  1.015 -99.9 -99.99 -9.99
2019/08/22 23:36 EDT    1.38   1.07 -999 -999 -999 -99.9  81.5 1014.3 23.5  1.015 -99.9 -99.99 -9.99
2019/08/22 23:42 EDT    1.42   1.08 -999 -999 -999 -99.9  81.5 1014.4 23.6  1.015 -99.9 -99.99 -9.99
2019/08/22 23:48 EDT    1.46   1.13 -999 -999 -999 -99.9  81.5 1014.4 23.6  1.015 -99.9 -99.99 -9.99
2019/08/22 23:54 EDT    1.51   1.16 -999 -999 -999 -99.9  81.5 1014.4 23.6  1.015 -99.9 -99.99 -9.99
2019/08/23 00:00 EDT    1.55   1.21 -999 -999 -999 -99.9  81.5 1014.4 23.3  1.015 -99.9 -99.99 -9.99
2019/08/23 00:06 EDT    1.59   1.25 -999 -999 -999 -99.9  81.5 1014.4 23.3  1.015 -99.9 -99.99 -9.99
2019/08/23 00:12 EDT    1.63   1.32 -999 -999 -999 -99.9  81.5 1014.4 23.3  1.015 -99.9 -99.99 -9.99
2019/08/23 00:18 EDT    1.68   1.33 -999 -999 -999 -99.9  81.5 1014.4 23.3  1.015 -99.9 -99.99 -9.99
2019/08/23 00:24 EDT    1.72   1.40 -999 -999 -999 -99.9  81.5 1014.5 23.3  1.015 -99.9 -99.99 -9.99
2019/08/23 00:30 EDT    1.76   1.45 -999 -999 -999 -99.9  81.5 1014.6 23.3  1.015 -99.9 -99.99 -9.99
2019/08/23 00:36 EDT    1.80   1.51 -999 -999 -999 -99.9  81.5 1014.7 23.3  1.015 -99.9 -99.99 -9.99
2019/08/23 00:42 EDT    1.83   1.56 -999 -999 -999 -99.9  81.5 1014.7 23.4  1.015 -99.9 -99.99 -9.99
2019/08/23 00:48 EDT    1.87   1.60 -999 -999 -999 -99.9  81.5 1014.7 23.3  1.015 -99.9 -99.99 -9.99
2019/08/23 00:54 EDT    1.91   1.65 -999 -999 -999 -99.9  81.5 1014.8 23.6  1.015 -99.9 -99.99 -9.99
2019/08/23 01:00 EDT    1.94   1.70 -999 -999 -999 -99.9  81.5 1014.8 23.7  1.015 -99.9 -99.99 -9.99
2019/08/23 01:06 EDT    1.98   1.74 -999 -999 -999 -99.9  81.5 1014.7 23.7  1.015 -99.9 -99.99 -9.99
2019/08/23 01:12 EDT    2.01   1.82 -999 -999 -999 -99.9  81.5 1014.7 23.6  1.015 -99.9 -99.99 -9.99
2019/08/23 01:18 EDT    2.04   1.87 -999 -999 -999 -99.9  81.5 1014.7 23.7  1.015 -99.9 -99.99 -9.99
2019/08/23 01:24 EDT    2.07   1.93 -999 -999 -999 -99.9  81.5 1014.7 23.7  1.015 -99.9 -99.99 -9.99
2019/08/23 01:30 EDT    2.09   1.96 -999 -999 -999 -99.9  81.5 1014.6 23.7  1.015 -99.9 -99.99 -9.99
2019/08/23 01:36 EDT    2.12   2.01 -999 -999 -999 -99.9  81.5 1014.6 23.7  1.015 -99.9 -99.99 -9.99
2019/08/23 01:42 EDT    2.14   2.05 -999 -999 -999 -99.9  81.5 1014.5 23.7  1.015 -99.9 -99.99 -9.99
2019/08/23 01:48 EDT    2.16   2.09 -999 -999 -999 -99.9  81.5 1014.4 23.7  1.015 -99.9 -99.99 -9.99
2019/08/23 01:54 EDT    2.18   2.12 -999 -999 -999 -99.9  81.5 1014.4 23.6  1.015 -99.9 -99.99 -9.99
2019/08/23 02:00 EDT    2.20   2.16 -999 -999 -999 -99.9  81.5 1014.4 23.6  1.015 -99.9 -99.99 -9.99
2019/08/23 02:06 EDT    2.21   2.19 -999 -999 -999 -99.9  81.5 1014.4 23.6  1.015 -99.9 -99.99 -9.99
2019/08/23 02:12 EDT    2.22   2.21 -999 -999 -999 -99.9  81.5 1014.4 23.7  1.015 -99.9 -99.99 -9.99
2019/08/23 02:18 EDT    2.23   2.22 -999 -999 -999 -99.9  81.5 1014.4 23.7  1.015 -99.9 -99.99 -9.99
2019/08/23 02:24 EDT    2.24   2.23 -999 -999 -999 -99.9  81.5 1014.5 23.7  1.015 -99.9 -99.99 -9.99
2019/08/23 02:30 EDT    2.25   2.24 -999 -999 -999 -99.9  81.5 1014.5 23.7  1.015 -99.9 -99.99 -9.99
2019/08/23 02:36 EDT    2.25   2.25 -999 -999 -999 -99.9  81.5 1014.4 23.7  1.015 -99.9 -99.99 -9.99
2019/08/23 02:42 EDT    2.25   2.27 -999 -999 -999 -99.9  81.5 1014.5 23.6  1.015 -99.9 -99.99 -9.99
2019/08/23 02:48 EDT    2.25   2.26 -999 -999 -999 -99.9  81.5 1014.4 23.6  1.015 -99.9 -99.99 -9.99
2019/08/23 02:54 EDT    2.25   2.25 -999 -999 -999 -99.9  81.5 1014.4 23.6  1.015 -99.9 -99.99 -9.99
2019/08/23 03:00 EDT    2.24   2.24 -999 -999 -999 -99.9  81.3 1014.4 23.5  1.015 -99.9 -99.99 -9.99
2019/08/23 03:06 EDT    2.24   2.22 -999 -999 -999 -99.9  81.1 1014.4 23.6  1.015 -99.9 -99.99 -9.99
2019/08/23 03:12 EDT    2.23   2.22 -999 -999 -999 -99.9  81.1 1014.4 23.6  1.015 -99.9 -99.99 -9.99
2019/08/23 03:18 EDT    2.21   2.22 -999 -999 -999 -99.9  81.1 1014.4 23.6  1.015 -99.9 -99.99 -9.99
2019/08/23 03:24 EDT    2.20   2.21 -999 -999 -999 -99.9  81.1 1014.4 23.6  1.015 -99.9 -99.99 -9.99
2019/08/23 03:30 EDT    2.18   2.19 -999 -999 -999 -99.9  81.1 1014.4 23.5  1.015 -99.9 -99.99 -9.99
2019/08/23 03:36 EDT    2.16   2.19 -999 -999 -999 -99.9  81.1 1014.3 23.1  1.015 -99.9 -99.99 -9.99
2019/08/23 03:42 EDT    2.14   2.18 -999 -999 -999 -99.9  81.1 1014.3 23.1  1.015 -99.9 -99.99 -9.99
2019/08/23 03:48 EDT    2.12   2.17 -999 -999 -999 -99.9  81.1 1014.4 23.1  1.015 -99.9 -99.99 -9.99
2019/08/23 03:54 EDT    2.10   2.17 -999 -999 -999 -99.9  81.3 1014.4 23.2  1.015 -99.9 -99.99 -9.99
2019/08/23 04:00 EDT    2.07   2.15 -999 -999 -999 -99.9  81.5 1014.4 23.4  1.015 -99.9 -99.99 -9.99
2019/08/23 04:06 EDT    2.04   2.14 -999 -999 -999 -99.9  81.3 1014.4 23.6  1.015 -99.9 -99.99 -9.99
2019/08/23 04:12 EDT    2.01   2.13 -999 -999 -999 -99.9  81.3 1014.4 23.6  1.015 -99.9 -99.99 -9.99
2019/08/23 04:18 EDT    1.98   2.08 -999 -999 -999 -99.9  81.3 1014.4 23.6  1.015 -99.9 -99.99 -9.99
2019/08/23 04:24 EDT    1.95   2.06 -999 -999 -999 -99.9  81.3 1014.4 23.6  1.015 -99.9 -99.99 -9.99
2019/08/23 04:30 EDT    1.91   1.95 -999 -999 -999 -99.9  81.3 1014.4 23.6  1.015 -99.9 -99.99 -9.99
2019/08/23 04:36 EDT    1.88   1.92 -999 -999 -999 -99.9  81.3 1014.4 23.6  1.015 -99.9 -99.99 -9.99
2019/08/23 04:42 EDT    1.84   1.92 -999 -999 -999 -99.9  81.3 1014.5 23.6  1.015 -99.9 -99.99 -9.99
2019/08/23 04:48 EDT    1.80   1.88 -999 -999 -999 -99.9  81.3 1014.5 23.6  1.015 -99.9 -99.99 -9.99
2019/08/23 04:54 EDT    1.76   1.86 -999 -999 -999 -99.9  81.3 1014.5 23.6  1.015 -99.9 -99.99 -9.99
2019/08/23 05:00 EDT    1.72   1.80 -999 -999 -999 -99.9  81.3 1014.6 23.6  1.015 -99.9 -99.99 -9.99
2019/08/23 05:06 EDT    1.68   1.75 -999 -999 -999 -99.9  81.3 1014.6 23.6  1.015 -99.9 -99.99 -9.99
2019/08/23 05:12 EDT    1.64   1.73 -999 -999 -999 -99.9  81.3 1014.6 23.6  1.015 -99.9 -99.99 -9.99
2019/08/23 05:18 EDT    1.59   1.69 -999 -999 -999 -99.9  81.3 1014.5 23.5  1.015 -99.9 -99.99 -9.99
2019/08/23 05:24 EDT    1.55   1.65 -999 -999 -999 -99.9  81.1 1014.5 23.5  1.015 -99.9 -99.99 -9.99
2019/08/23 05:30 EDT    1.51   1.57 -999 -999 -999 -99.9  81.1 1014.6 23.6  1.015 -99.9 -99.99 -9.99
2019/08/23 05:36 EDT    1.46   1.51 -999 -999 -999 -99.9  81.3 1014.7 23.6  1.015 -99.9 -99.99 -9.99
2019/08/23 05:42 EDT    1.42   1.45 -999 -999 -999 -99.9  81.0 1014.7 23.5  1.015 -99.9 -99.99 -9.99
2019/08/23 05:48 EDT    1.37   1.40 -999 -999 -999 -99.9  81.0 1014.6 23.5  1.015 -99.9 -99.99 -9.99
2019/08/23 05:54 EDT    1.33   1.34 -999 -999 -999 -99.9  81.1 1014.8 23.5  1.015 -99.9 -99.99 -9.99
2019/08/23 06:00 EDT    1.28   1.29 -999 -999 -999 -99.9  81.1 1014.9 23.6  1.015 -99.9 -99.99 -9.99
2019/08/23 06:06 EDT    1.23   1.22 -999 -999 -999 -99.9  81.0 1015.1 23.6  1.015 -99.9 -99.99 -9.99
2019/08/23 06:12 EDT    1.19   1.20 -999 -999 -999 -99.9  81.0 1015.1 23.6  1.015 -99.9 -99.99 -9.99
2019/08/23 06:18 EDT    1.15   1.15 -999 -999 -999 -99.9  81.1 1015.1 23.5  1.015 -99.9 -99.99 -9.99
2019/08/23 06:24 EDT    1.10   1.13 -999 -999 -999 -99.9  81.1 1015.1 23.5  1.015 -99.9 -99.99 -9.99
2019/08/23 06:30 EDT    1.06   1.08 -999 -999 -999 -99.9  81.0 1015.1 23.2  1.015 -99.9 -99.99 -9.99
2019/08/23 06:36 EDT    1.02   1.04 -999 -999 -999 -99.9  81.0 1015.2 23.2  1.015 -99.9 -99.99 -9.99
2019/08/23 06:42 EDT    0.97   0.99 -999 -999 -999 -99.9  81.1 1015.2 23.3  1.015 -99.9 -99.99 -9.99
2019/08/23 06:48 EDT    0.93   0.96 -999 -999 -999 -99.9  81.1 1015.2 23.2  1.015 -99.9 -99.99 -9.99
2019/08/23 06:54 EDT    0.89   0.93 -999 -999 -999 -99.9  81.1 1015.3 23.2  1.015 -99.9 -99.99 -9.99
2019/08/23 07:00 EDT    0.85   0.88 -999 -999 -999 -99.9  81.1 1015.2 23.2  1.015 -99.9 -99.99 -9.99
2019/08/23 07:06 EDT    0.82   0.82 -999 -999 -999 -99.9  81.1 1015.3 23.2  1.015 -99.9 -99.99 -9.99
2019/08/23 07:12 EDT    0.78   0.77 -999 -999 -999 -99.9  81.1 1015.2 23.3  1.015 -99.9 -99.99 -9.99
2019/08/23 07:18 EDT    0.75   0.72 -999 -999 -999 -99.9  81.1 1015.3 23.2  1.015 -99.9 -99.99 -9.99
2019/08/23 07:24 EDT    0.71   0.69 -999 -999 -999 -99.9  81.1 1015.2 23.2  1.015 -99.9 -99.99 -9.99
2019/08/23 07:30 EDT    0.68   0.63 -999 -999 -999 -99.9  81.0 1015.1 23.3  1.015 -99.9 -99.99 -9.99
2019/08/23 07:36 EDT    0.65   0.61 -999 -999 -999 -99.9  81.1 1015.2 23.2  1.015 -99.9 -99.99 -9.99
2019/08/23 07:42 EDT    0.62   0.58 -999 -999 -999 -99.9  81.1 1015.3 23.2  1.015 -99.9 -99.99 -9.99
2019/08/23 07:48 EDT    0.60   0.55 -999 -999 -999 -99.9  81.1 1015.3 23.2  1.015 -99.9 -99.99 -9.99
2019/08/23 07:54 EDT    0.57   0.54 -999 -999 -999 -99.9  81.1 1015.3 23.2  1.015 -99.9 -99.99 -9.99
2019/08/23 08:00 EDT    0.55   0.54 -999 -999 -999 -99.9  81.1 1015.2 23.2  1.015 -99.9 -99.99 -9.99
2019/08/23 08:06 EDT    0.53   0.55 -999 -999 -999 -99.9  81.0 1015.3 23.3  1.015 -99.9 -99.99 -9.99
2019/08/23 08:12 EDT    0.51   0.55 -999 -999 -999 -99.9  81.0 1015.3 23.2  1.015 -99.9 -99.99 -9.99
2019/08/23 08:18 EDT    0.50   0.57 -999 -999 -999 -99.9  81.1 1015.3 23.2  1.015 -99.9 -99.99 -9.99
2019/08/23 08:24 EDT    0.49   0.51 -999 -999 -999 -99.9  81.1 1015.2 23.3  1.015 -99.9 -99.99 -9.99
2019/08/23 08:30 EDT    0.48   0.57 -999 -999 -999 -99.9  81.0 1015.2 23.3  1.015 -99.9 -99.99 -9.99
2019/08/23 08:36 EDT    0.47   0.55 -999 -999 -999 -99.9  81.1 1015.2 23.3  1.015 -99.9 -99.99 -9.99
2019/08/23 08:42 EDT    0.46   0.57 -999 -999 -999 -99.9  81.0 1015.2 23.3  1.015 -99.9 -99.99 -9.99
2019/08/23 08:48 EDT    0.46   0.55 -999 -999 -999 -99.9  81.1 1015.2 23.2  1.015 -99.9 -99.99 -9.99
2019/08/23 08:54 EDT    0.46   0.56 -999 -999 -999 -99.9  81.1 1015.2 23.2  1.015 -99.9 -99.99 -9.99
2019/08/23 09:00 EDT    0.46   0.59 -999 -999 -999 -99.9  81.0 1015.2 23.2  1.015 -99.9 -99.99 -9.99
2019/08/23 09:06 EDT    0.47   0.61 -999 -999 -999 -99.9  81.0 1015.3 23.2  1.015 -99.9 -99.99 -9.99
2019/08/23 09:12 EDT    0.47   0.62 -999 -999 -999 -99.9  81.1 1015.3 23.3  1.015 -99.9 -99.99 -9.99
2019/08/23 09:18 EDT    0.48   0.64 -999 -999 -999 -99.9  81.1 1015.3 23.3  1.015 -99.9 -99.99 -9.99
2019/08/23 09:24 EDT    0.50   0.68 -999 -999 -999 -99.9  81.3 1015.5 23.3  1.015 -99.9 -99.99 -9.99
2019/08/23 09:30 EDT    0.51   0.73 -999 -999 -999 -99.9  81.1 1015.5 23.3  1.015 -99.9 -99.99 -9.99
2019/08/23 09:36 EDT    0.53   0.73 -999 -999 -999 -99.9  81.1 1015.6 23.2  1.015 -99.9 -99.99 -9.99
2019/08/23 09:42 EDT    0.55   0.74 -999 -999 -999 -99.9  81.1 1015.7 23.3  1.015 -99.9 -99.99 -9.99
2019/08/23 09:48 EDT    0.57   0.76 -999 -999 -999 -99.9  81.1 1015.7 23.3  1.015 -99.9 -99.99 -9.99
2019/08/23 09:54 EDT    0.60   0.81 -999 -999 -999 -99.9  81.1 1015.7 23.3  1.015 -99.9 -99.99 -9.99
2019/08/23 10:00 EDT    0.63   0.82 -999 -999 -999 -99.9  81.1 1015.7 23.3  1.015 -99.9 -99.99 -9.99
2019/08/23 10:06 EDT    0.66   0.81 -999 -999 -999 -99.9  81.1 1015.7 23.4  1.015 -99.9 -99.99 -9.99
2019/08/23 10:12 EDT    0.69   0.91 -999 -999 -999 -99.9  81.1 1015.7 23.3  1.015 -99.9 -99.99 -9.99
2019/08/23 10:18 EDT    0.72   0.90 -999 -999 -999 -99.9  81.1 1015.7 23.3  1.015 -99.9 -99.99 -9.99
2019/08/23 10:24 EDT    0.76   0.96 -999 -999 -999 -99.9  81.1 1015.7 23.3  1.015 -99.9 -99.99 -9.99
2019/08/23 10:30 EDT    0.80   0.96 -999 -999 -999 -99.9  81.1 1015.6 23.3  1.015 -99.9 -99.99 -9.99
2019/08/23 10:36 EDT    0.84   1.04 -999 -999 -999 -99.9  81.1 1015.5 23.3  1.015 -99.9 -99.99 -9.99
2019/08/23 10:42 EDT    0.88   1.03 -999 -999 -999 -99.9  81.1 1015.4 23.3  1.015 -99.9 -99.99 -9.99
2019/08/23 10:48 EDT    0.93   1.13 -999 -999 -999 -99.9  81.1 1015.4 23.3  1.015 -99.9 -99.99 -9.99
2019/08/23 10:54 EDT    0.97   1.20 -999 -999 -999 -99.9  81.1 1015.3 23.3  1.015 -99.9 -99.99 -9.99
2019/08/23 11:00 EDT    1.02   1.21 -999 -999 -999 -99.9  81.1 1015.2 23.4  1.015 -99.9 -99.99 -9.99
2019/08/23 11:06 EDT    1.07   1.28 -999 -999 -999 -99.9  81.1 1015.2 23.4  1.015 -99.9 -99.99 -9.99
2019/08/23 11:12 EDT    1.12   1.31 -999 -999 -999 -99.9  81.0 1015.1 23.4  1.015 -99.9 -99.99 -9.99
2019/08/23 11:18 EDT    1.17   1.35 -999 -999 -999 -99.9  81.1 1015.0 23.4  1.015 -99.9 -99.99 -9.99
2019/08/23 11:24 EDT    1.22   1.40 -999 -999 -999 -99.9  81.0 1014.9 23.5  1.015 -99.9 -99.99 -9.99
2019/08/23 11:30 EDT    1.27   1.44 -999 -999 -999 -99.9  81.0 1014.9 23.5  1.015 -99.9 -99.99 -9.99
2019/08/23 11:36 EDT    1.33   1.51 -999 -999 -999 -99.9  81.0 1014.8 23.5  1.015 -99.9 -99.99 -9.99
2019/08/23 11:42 EDT    1.38   1.57 -999 -999 -999 -99.9  81.0 1014.8 23.4  1.015 -99.9 -99.99 -9.99
2019/08/23 11:48 EDT    1.44   1.59 -999 -999 -999 -99.9  80.8 1014.7 23.5  1.015 -99.9 -99.99 -9.99
2019/08/23 11:54 EDT    1.49   1.66 -999 -999 -999 -99.9  80.8 1014.7 23.5  1.015 -99.9 -99.99 -9.99
2019/08/23 12:00 EDT    1.55   1.72 -999 -999 -999 -99.9  80.6 1014.7 23.5  1.015 -99.9 -99.99 -9.99
2019/08/23 12:06 EDT    1.60   1.77 -999 -999 -999 -99.9  80.8 1014.7 23.5  1.015 -99.9 -99.99 -9.99
2019/08/23 12:12 EDT    1.66   1.83 -999 -999 -999 -99.9  80.8 1014.7 23.4  1.015 -99.9 -99.99 -9.99
2019/08/23 12:18 EDT    1.71   1.88 -999 -999 -999 -99.9  80.8 1014.6 23.5  1.015 -99.9 -99.99 -9.99
2019/08/23 12:24 EDT    1.77   1.93 -999 -999 -999 -99.9  80.8 1014.5 23.5  1.015 -99.9 -99.99 -9.99
2019/08/23 12:30 EDT    1.82   2.00 -999 -999 -999 -99.9  80.8 1014.4 23.5  1.015 -99.9 -99.99 -9.99
2019/08/23 12:36 EDT    1.87   2.05 -999 -999 -999 -99.9  80.8 1014.3 23.5  1.015 -99.9 -99.99 -9.99
2019/08/23 12:42 EDT    1.92   2.12 -999 -999 -999 -99.9  80.6 1014.3 23.7  1.015 -99.9 -99.99 -9.99
2019/08/23 12:48 EDT    1.98   2.16 -999 -999 -999 -99.9  80.6 1014.2 23.6  1.015 -99.9 -99.99 -9.99
2019/08/23 12:54 EDT    2.03   2.21 -999 -999 -999 -99.9  80.6 1014.2 23.6  1.015 -99.9 -99.99 -9.99
2019/08/23 13:00 EDT    2.08   2.26 -999 -999 -999 -99.9  80.8 1014.3 23.6  1.015 -99.9 -99.99 -9.99
2019/08/23 13:06 EDT    2.12   2.32 -999 -999 -999 -99.9  80.8 1014.3 23.6  1.015 -99.9 -99.99 -9.99
2019/08/23 13:12 EDT    2.17   2.35 -999 -999 -999 -99.9  80.6 1014.3 23.6  1.015 -99.9 -99.99 -9.99
2019/08/23 13:18 EDT    2.21   2.44 -999 -999 -999 -99.9  80.6 1014.3 23.7  1.015 -99.9 -99.99 -9.99
2019/08/23 13:24 EDT    2.26   2.48 -999 -999 -999 -99.9  80.6 1014.2 23.7  1.015 -99.9 -99.99 -9.99
2019/08/23 13:30 EDT    2.30   2.53 -999 -999 -999 -99.9  80.6 1014.2 23.8  1.015 -99.9 -99.99 -9.99
2019/08/23 13:36 EDT    2.34   2.58 -999 -999 -999 -99.9  80.6 1014.2 23.7  1.015 -99.9 -99.99 -9.99
2019/08/23 13:42 EDT    2.38   2.62 -999 -999 -999 -99.9  80.6 1014.1 23.8  1.015 -99.9 -99.99 -9.99
2019/08/23 13:48 EDT    2.41   2.68 -999 -999 -999 -99.9  80.8 1014.1 23.6  1.015 -99.9 -99.99 -9.99
2019/08/23 13:54 EDT    2.44   2.72 -999 -999 -999 -99.9  81.0 1014.1 23.6  1.015 -99.9 -99.99 -9.99
2019/08/23 14:00 EDT    2.48   2.75 -999 -999 -999 -99.9  81.1 1014.1 23.7  1.015 -99.9 -99.99 -9.99
2019/08/23 14:06 EDT    2.50   2.77 -999 -999 -999 -99.9  81.5 1014.0 23.5  1.015 -99.9 -99.99 -9.99
2019/08/23 14:12 EDT    2.53   2.81 -999 -999 -999 -99.9  81.5 1013.9 23.6  1.015 -99.9 -99.99 -9.99
2019/08/23 14:18 EDT    2.56   2.84 -999 -999 -999 -99.9  81.1 1013.9 23.7  1.015 -99.9 -99.99 -9.99
2019/08/23 14:24 EDT    2.58   2.87 -999 -999 -999 -99.9  81.1 1013.8 24.0  1.015 -99.9 -99.99 -9.99
2019/08/23 14:30 EDT    2.60   2.89 -999 -999 -999 -99.9  81.3 1013.8 23.9  1.015 -99.9 -99.99 -9.99
2019/08/23 14:36 EDT    2.61   2.92 -999 -999 -999 -99.9  81.0 1013.7 24.0  1.015 -99.9 -99.99 -9.99
2019/08/23 14:42 EDT    2.63   2.87 -999 -999 -999 -99.9  81.0 1013.7 24.0  1.015 -99.9 -99.99 -9.99
2019/08/23 14:48 EDT    2.64   2.93 -999 -999 -999 -99.9  81.0 1013.7 24.0  1.015 -99.9 -99.99 -9.99
2019/08/23 14:54 EDT    2.65   2.96 -999 -999 -999 -99.9  81.0 1013.6 24.0  1.015 -99.9 -99.99 -9.99
2019/08/23 15:00 EDT    2.66   2.95 -999 -999 -999 -99.9  81.0 1013.4 24.0  1.015 -99.9 -99.99 -9.99
2019/08/23 15:06 EDT    2.66   2.93 -999 -999 -999 -99.9  81.1 1013.4 23.9  1.015 -99.9 -99.99 -9.99
2019/08/23 15:12 EDT    2.66   2.97 -999 -999 -999 -99.9  81.1 1013.4 23.9  1.015 -99.9 -99.99 -9.99
2019/08/23 15:18 EDT    2.66   2.95 -999 -999 -999 -99.9  81.1 1013.2 23.9  1.015 -99.9 -99.99 -9.99
2019/08/23 15:24 EDT    2.66   2.97 -999 -999 -999 -99.9  81.1 1013.1 23.9  1.015 -99.9 -99.99 -9.99
2019/08/23 15:30 EDT    2.66   2.97 -999 -999 -999 -99.9  81.3 1013.1 23.8  1.015 -99.9 -99.99 -9.99
2019/08/23 15:36 EDT    2.65   2.95 -999 -999 -999 -99.9  81.0 1013.1 24.0  1.015 -99.9 -99.99 -9.99
2019/08/23 15:42 EDT    2.64   2.94 -999 -999 -999 -99.9  81.0 1013.1 23.9  1.015 -99.9 -99.99 -9.99
2019/08/23 15:48 EDT    2.63   2.90 -999 -999 -999 -99.9  81.1 1013.0 23.9  1.015 -99.9 -99.99 -9.99
2019/08/23 15:54 EDT    2.61   2.88 -999 -999 -999 -99.9  80.8 1012.9 24.1  1.015 -99.9 -99.99 -9.99
2019/08/23 16:00 EDT    2.59   2.86 -999 -999 -999 -99.9  81.0 1012.8 24.0  1.015 -99.9 -99.99 -9.99
2019/08/23 16:06 EDT    2.57   2.84 -999 -999 -999 -99.9  80.8 1012.7 24.1  1.015 -99.9 -99.99 -9.99
2019/08/23 16:12 EDT    2.55   2.82 -999 -999 -999 -99.9  80.6 1012.8 24.3  1.016 -99.9 -99.99 -9.99
2019/08/23 16:18 EDT    2.53   2.80 -999 -999 -999 -99.9  81.1 1012.8 24.1  1.015 -99.9 -99.99 -9.99
2019/08/23 16:24 EDT    2.50   2.78 -999 -999 -999 -99.9  81.7 1012.8 23.9  1.015 -99.9 -99.99 -9.99
2019/08/23 16:30 EDT    2.48   2.75 -999 -999 -999 -99.9  81.3 1012.7 24.0  1.015 -99.9 -99.99 -9.99
2019/08/23 16:36 EDT    2.45   2.75 -999 -999 -999 -99.9  81.3 1012.6 24.0  1.015 -99.9 -99.99 -9.99
2019/08/23 16:42 EDT    2.42   2.71 -999 -999 -999 -99.9  81.3 1012.5 24.1  1.015 -99.9 -99.99 -9.99
2019/08/23 16:48 EDT    2.38   2.72 -999 -999 -999 -99.9  81.1 1012.3 24.1  1.015 -99.9 -99.99 -9.99
2019/08/23 16:54 EDT    2.35   2.71 -999 -999 -999 -99.9  81.1 1012.3 24.2  1.015 -99.9 -99.99 -9.99
2019/08/23 17:00 EDT    2.32   2.70 -999 -999 -999 -99.9  81.0 1012.4 24.3  1.016 -99.9 -99.99 -9.99
2019/08/23 17:06 EDT    2.28   2.67 -999 -999 -999 -99.9  81.0 1012.4 24.2  1.015 -99.9 -99.99 -9.99
2019/08/23 17:12 EDT    2.24   2.65 -999 -999 -999 -99.9  80.6 1012.5 24.6  1.016 -99.9 -99.99 -9.99
2019/08/23 17:18 EDT    2.20   2.63 -999 -999 -999 -99.9  80.8 1012.7 24.3  1.016 -99.9 -99.99 -9.99
2019/08/23 17:24 EDT    2.16   2.60 -999 -999 -999 -99.9  81.1 1012.8 24.1  1.015 -99.9 -99.99 -9.99
2019/08/23 17:30 EDT    2.12   2.58 -999 -999 -999 -99.9  81.0 1012.8 24.3  1.016 -99.9 -99.99 -9.99
2019/08/23 17:36 EDT    2.07   2.53 -999 -999 -999 -99.9  81.0 1012.8 24.3  1.016 -99.9 -99.99 -9.99
2019/08/23 17:42 EDT    2.03   2.47 -999 -999 -999 -99.9  81.0 1012.8 24.3  1.016 -99.9 -99.99 -9.99
2019/08/23 17:48 EDT    1.99   2.48 -999 -999 -999 -99.9  80.8 1013.3 24.4  1.016 -99.9 -99.99 -9.99
2019/08/23 17:54 EDT    1.94   2.42 -999 -999 -999 -99.9  80.8 1013.3 24.4  1.016 -99.9 -99.99 -9.99
2019/08/23 18:00 EDT    1.89   2.39 -999 -999 -999 -99.9  80.4 1013.2 24.7  1.016 -99.9 -99.99 -9.99
2019/08/23 18:06 EDT    1.85   2.37 -999 -999 -999 -99.9  80.6 1012.8 24.5  1.016 -99.9 -99.99 -9.99
2019/08/23 18:12 EDT    1.80   2.34 -999 -999 -999 -99.9  81.0 1012.9 24.3  1.016 -99.9 -99.99 -9.99
2019/08/23 18:18 EDT    1.75   2.33 -999 -999 -999 -99.9  81.1 1013.2 24.2  1.015 -99.9 -99.99 -9.99
2019/08/23 18:24 EDT    1.71   2.28 -999 -999 -999 -99.9  81.0 1013.5 24.3  1.016 -99.9 -99.99 -9.99
2019/08/23 18:30 EDT    1.66   2.28 -999 -999 -999 -99.9  80.8 1013.7 24.4  1.016 -99.9 -99.99 -9.99
2019/08/23 18:36 EDT    1.61   2.25 -999 -999 -999 -99.9  80.6 1013.7 24.6  1.016 -99.9 -99.99 -9.99
2019/08/23 18:42 EDT    1.57   2.23 -999 -999 -999 -99.9  80.6 1013.8 24.5  1.016 -99.9 -99.99 -9.99
2019/08/23 18:48 EDT    1.52   2.22 -999 -999 -999 -99.9  80.6 1013.8 24.5  1.016 -99.9 -99.99 -9.99
2019/08/23 18:54 EDT    1.47   2.22 -999 -999 -999 -99.9  80.8 1014.2 24.4  1.016 -99.9 -99.99 -9.99
2019/08/23 19:00 EDT    1.43   2.27 -999 -999 -999 -99.9  80.8 1013.9 24.5  1.016 -99.9 -99.99 -9.99
2019/08/23 19:06 EDT    1.38   2.26 -999 -999 -999 -99.9  81.0 1014.0 24.4  1.016 -99.9 -99.99 -9.99
2019/08/23 19:12 EDT    1.34   2.24 -999 -999 -999 -99.9  80.8 1014.1 24.4  1.016 -99.9 -99.99 -9.99
2019/08/23 19:18 EDT    1.29   2.22 -999 -999 -999 -99.9  81.0 1013.4 24.3  1.016 -99.9 -99.99 -9.99
2019/08/23 19:24 EDT    1.25   2.25 -999 -999 -999 -99.9  81.0 1013.6 24.3  1.016 -99.9 -99.99 -9.99
2019/08/23 19:30 EDT    1.20   2.20 -999 -999 -999 -99.9  81.0 1014.2 24.3  1.016 -99.9 -99.99 -9.99
2019/08/23 19:36 EDT    1.16   2.25 -999 -999 -999 -99.9  81.0 1014.7 24.3  1.016 -99.9 -99.99 -9.99
2019/08/23 19:42 EDT    1.12   2.22 -999 -999 -999 -99.9  81.1 1014.8 24.3  1.015 -99.9 -99.99 -9.99
2019/08/23 19:48 EDT    1.08   2.22 -999 -999 -999 -99.9  81.0 1015.0 24.3  1.016 -99.9 -99.99 -9.99
2019/08/23 19:54 EDT    1.04   2.16 -999 -999 -999 -99.9  81.1 1015.0 24.2  1.015 -99.9 -99.99 -9.99
2019/08/23 20:00 EDT    1.01   2.11 -999 -999 -999 -99.9  81.1 1014.9 24.2  1.015 -99.9 -99.99 -9.99
2019/08/23 20:06 EDT    0.97   2.08 -999 -999 -999 -99.9  81.3 1015.1 24.1  1.015 -99.9 -99.99 -9.99
2019/08/23 20:12 EDT    0.94   2.05 -999 -999 -999 -99.9  81.3 1015.3 24.1  1.015 -99.9 -99.99 -9.99
2019/08/23 20:18 EDT    0.91   2.03 -999 -999 -999 -99.9  81.0 1015.6 24.3  1.016 -99.9 -99.99 -9.99
2019/08/23 20:24 EDT    0.88   1.99 -999 -999 -999 -99.9  80.8 1015.5 24.4  1.016 -99.9 -99.99 -9.99
2019/08/23 20:30 EDT    0.85   1.98 -999 -999 -999 -99.9  81.0 1015.4 24.4  1.016 -99.9 -99.99 -9.99
2019/08/23 20:36 EDT    0.82   1.96 -999 -999 -999 -99.9  81.0 1015.7 24.3  1.016 -99.9 -99.99 -9.99
2019/08/23 20:42 EDT    0.79   1.96 -999 -999 -999 -99.9  81.1 1015.8 24.3  1.015 -99.9 -99.99 -9.99
2019/08/23 20:48 EDT    0.77   1.94 -999 -999 -999 -99.9  81.0 1015.9 24.3  1.016 -99.9 -99.99 -9.99
2019/08/23 20:54 EDT    0.75   1.94 -999 -999 -999 -99.9  80.8 1016.0 24.3  1.016 -99.9 -99.99 -9.99
2019/08/23 21:00 EDT    0.73   1.96 -999 -999 -999 -99.9  80.4 1016.1 24.2  1.016 -99.9 -99.99 -9.99
2019/08/23 21:06 EDT    0.71   1.93 -999 -999 -999 -99.9  80.4 1016.1 24.4  1.016 -99.9 -99.99 -9.99
2019/08/23 21:12 EDT    0.70   1.91 -999 -999 -999 -99.9  80.2 1016.1 24.4  1.016 -99.9 -99.99 -9.99
2019/08/23 21:18 EDT    0.69   1.90 -999 -999 -999 -99.9  80.2 1016.1 24.4  1.016 -99.9 -99.99 -9.99
2019/08/23 21:24 EDT    0.68   1.81 -999 -999 -999 -99.9  80.2 1016.1 24.4  1.016 -99.9 -99.99 -9.99
2019/08/23 21:30 EDT    0.67   1.83 -999 -999 -999 -99.9  80.4 1016.1 24.3  1.016 -99.9 -99.99 -9.99
2019/08/23 21:36 EDT    0.66   1.79 -999 -999 -999 -99.9  80.2 1016.2 24.4  1.016 -99.9 -99.99 -9.99
2019/08/23 21:42 EDT    0.66   1.76 -999 -999 -999 -99.9  80.1 1016.1 24.5  1.016 -99.9 -99.99 -9.99
2019/08/23 21:48 EDT    0.66   1.71 -999 -999 -999 -99.9  80.1 1016.2 25.0  1.016 -99.9 -99.99 -9.99
2019/08/23 21:54 EDT    0.66   1.69 -999 -999 -999 -99.9  80.2 1016.5 24.8  1.016 -99.9 -99.99 -9.99
2019/08/23 22:00 EDT    0.66   1.64 -999 -999 -999 -99.9  80.2 1016.5 24.8  1.016 -99.9 -99.99 -9.99
2019/08/23 22:06 EDT    0.66   1.67 -999 -999 -999 -99.9  80.2 1016.2 24.8  1.016 -99.9 -99.99 -9.99
2019/08/23 22:12 EDT    0.67   1.63 -999 -999 -999 -99.9  80.1 1016.1 24.9  1.016 -99.9 -99.99 -9.99
2019/08/23 22:18 EDT    0.68   1.63 -999 -999 -999 -99.9  80.1 1016.3 24.9  1.016 -99.9 -99.99 -9.99
2019/08/23 22:24 EDT    0.69   1.62 -999 -999 -999 -99.9  80.1 1016.5 24.9  1.016 -99.9 -99.99 -9.99
2019/08/23 22:30 EDT    0.71   1.62 -999 -999 -999 -99.9  80.1 1016.5 25.0  1.016 -99.9 -99.99 -9.99
2019/08/23 22:36 EDT    0.72   1.62 -999 -999 -999 -99.9  79.9 1016.5 25.1  1.016 -99.9 -99.99 -9.99
2019/08/23 22:42 EDT    0.74   1.61 -999 -999 -999 -99.9  80.1 1016.5 24.8  1.016 -99.9 -99.99 -9.99
2019/08/23 22:48 EDT    0.76   1.63 -999 -999 -999 -99.9  80.1 1016.7 24.8  1.016 -99.9 -99.99 -9.99
2019/08/23 22:54 EDT    0.78   1.62 -999 -999 -999 -99.9  80.1 1016.8 24.8  1.016 -99.9 -99.99 -9.99
2019/08/23 23:00 EDT    0.81   1.64 -999 -999 -999 -99.9  80.1 1016.8 24.9  1.016 -99.9 -99.99 -9.99
2019/08/23 23:06 EDT    0.83   1.68 -999 -999 -999 -99.9  79.9 1017.0 24.9  1.016 -99.9 -99.99 -9.99
2019/08/23 23:12 EDT    0.86   1.69 -999 -999 -999 -99.9  79.9 1017.1 25.0  1.016 -99.9 -99.99 -9.99
2019/08/23 23:18 EDT    0.89   1.69 -999 -999 -999 -99.9  80.1 1017.1 25.0  1.016 -99.9 -99.99 -9.99
2019/08/23 23:24 EDT    0.92   1.72 -999 -999 -999 -99.9  79.9 1017.1 25.0  1.016 -99.9 -99.99 -9.99
2019/08/23 23:30 EDT    0.95   1.75 -999 -999 -999 -99.9  79.9 1017.1 25.0  1.016 -99.9 -99.99 -9.99
2019/08/23 23:36 EDT    0.99   1.77 -999 -999 -999 -99.9  79.9 1017.1 24.9  1.016 -99.9 -99.99 -9.99
2019/08/23 23:42 EDT    1.02   1.79 -999 -999 -999 -99.9  79.9 1017.2 25.0  1.016 -99.9 -99.99 -9.99
2019/08/23 23:48 EDT    1.06   1.82 -999 -999 -999 -99.9  79.9 1017.2 25.0  1.016 -99.9 -99.99 -9.99
2019/08/23 23:54 EDT    1.10   1.84 -999 -999 -999 -99.9  79.9 1017.1 25.0  1.016 -99.9 -99.99 -9.99
2019/08/24 00:00 EDT    1.14   1.84 -999 -999 -999 -99.9  79.7 1017.0 25.2  1.016 -99.9 -99.99 -9.99
2019/08/24 00:06 EDT    1.18   1.87 -999 -999 -999 -99.9  79.9 1017.0 25.1  1.016 -99.9 -99.99 -9.99
2019/08/24 00:12 EDT    1.22   1.92 -999 -999 -999 -99.9  79.9 1016.9 24.7  1.016 -99.9 -99.99 -9.99
2019/08/24 00:18 EDT    1.26   1.95 -999 -999 -999 -99.9  79.9 1017.0 24.7  1.016 -99.9 -99.99 -9.99
2019/08/24 00:24 EDT    1.30   1.96 -999 -999 -999 -99.9  79.9 1016.9 24.7  1.016 -99.9 -99.99 -9.99
2019/08/24 00:30 EDT    1.34   2.00 -999 -999 -999 -99.9  79.9 1016.9 24.7  1.016 -99.9 -99.99 -9.99
2019/08/24 00:36 EDT    1.38   2.04 -999 -999 -999 -99.9  79.9 1016.9 24.7  1.016 -99.9 -99.99 -9.99
2019/08/24 00:42 EDT    1.42   2.07 -999 -999 -999 -99.9  79.9 1016.8 24.8  1.016 -99.9 -99.99 -9.99
2019/08/24 00:48 EDT    1.46   2.12 -999 -999 -999 -99.9  79.5 1016.8 25.0  1.016 -99.9 -99.99 -9.99
2019/08/24 00:54 EDT    1.51   2.17 -999 -999 -999 -99.9  79.2 1016.9 25.3  1.017 -99.9 -99.99 -9.99
2019/08/24 01:00 EDT    1.55   2.23 -999 -999 -999 -99.9  79.2 1016.8 25.2  1.017 -99.9 -99.99 -9.99
2019/08/24 01:06 EDT    1.59   2.26 -999 -999 -999 -99.9  79.0 1016.8 25.3  1.017 -99.9 -99.99 -9.99
2019/08/24 01:12 EDT    1.63   2.29 -999 -999 -999 -99.9  78.8 1016.8 25.5  1.017 -99.9 -99.99 -9.99
2019/08/24 01:18 EDT    1.67   2.33 -999 -999 -999 -99.9  78.8 1016.7 25.5  1.017 -99.9 -99.99 -9.99
2019/08/24 01:24 EDT    1.71   2.38 -999 -999 -999 -99.9  78.6 1016.6 25.6  1.017 -99.9 -99.99 -9.99
2019/08/24 01:30 EDT    1.75   2.43 -999 -999 -999 -99.9  78.6 1016.7 25.6  1.017 -99.9 -99.99 -9.99
2019/08/24 01:36 EDT    1.79   2.48 -999 -999 -999 -99.9  78.6 1016.8 25.6  1.017 -99.9 -99.99 -9.99
2019/08/24 01:42 EDT    1.82   2.55 -999 -999 -999 -99.9  78.6 1016.7 25.5  1.017 -99.9 -99.99 -9.99
2019/08/24 01:48 EDT    1.86   2.62 -999 -999 -999 -99.9  78.8 1016.7 25.4  1.017 -99.9 -99.99 -9.99
2019/08/24 01:54 EDT    1.89   2.68 -999 -999 -999 -99.9  79.0 1016.8 25.3  1.017 -99.9 -99.99 -9.99
2019/08/24 02:00 EDT    1.93   2.73 -999 -999 -999 -99.9  79.0 1016.8 25.3  1.017 -99.9 -99.99 -9.99
2019/08/24 02:06 EDT    1.96   2.81 -999 -999 -999 -99.9  79.0 1016.9 25.3  1.017 -99.9 -99.99 -9.99
2019/08/24 02:12 EDT    1.99   2.88 -999 -999 -999 -99.9  79.2 1017.0 25.2  1.017 -99.9 -99.99 -9.99
2019/08/24 02:18 EDT    2.02   2.93 -999 -999 -999 -99.9  79.2 1017.0 25.2  1.017 -99.9 -99.99 -9.99
2019/08/24 02:24 EDT    2.04   2.96 -999 -999 -999 -99.9  79.0 1017.1 25.3  1.017 -99.9 -99.99 -9.99
2019/08/24 02:30 EDT    2.07   3.00 -999 -999 -999 -99.9  79.0 1017.1 25.3  1.017 -99.9 -99.99 -9.99
2019/08/24 02:36 EDT    2.09   3.02 -999 -999 -999 -99.9  78.8 1017.1 25.5  1.017 -99.9 -99.99 -9.99
2019/08/24 02:42 EDT    2.11   3.03 -999 -999 -999 -99.9  78.1 1017.2 26.0  1.017 -99.9 -99.99 -9.99
2019/08/24 02:48 EDT    2.13   3.05 -999 -999 -999 -99.9  77.9 1017.1 26.1  1.017 -99.9 -99.99 -9.99
2019/08/24 02:54 EDT    2.15   3.06 -999 -999 -999 -99.9  77.9 1017.2 26.1  1.017 -99.9 -99.99 -9.99
2019/08/24 03:00 EDT    2.16   3.05 -999 -999 -999 -99.9  77.7 1017.1 26.2  1.018 -99.9 -99.99 -9.99
2019/08/24 03:06 EDT    2.18   3.04 -999 -999 -999 -99.9  77.7 1017.1 26.2  1.018 -99.9 -99.99 -9.99
2019/08/24 03:12 EDT    2.19   3.05 -999 -999 -999 -99.9  78.1 1017.1 26.0  1.017 -99.9 -99.99 -9.99
2019/08/24 03:18 EDT    2.20   3.06 -999 -999 -999 -99.9  78.1 1017.1 26.0  1.017 -99.9 -99.99 -9.99
2019/08/24 03:24 EDT    2.20   3.08 -999 -999 -999 -99.9  78.1 1017.2 26.0  1.017 -99.9 -99.99 -9.99
2019/08/24 03:30 EDT    2.21   3.09 -999 -999 -999 -99.9  78.3 1017.2 25.8  1.017 -99.9 -99.99 -9.99
2019/08/24 03:36 EDT    2.21   3.04 -999 -999 -999 -99.9  78.4 1017.3 -9.9 -9.999 -99.9 -99.99 -9.99
2019/08/24 03:42 EDT    2.21   3.08 -999 -999 -999 -99.9  78.4 1017.3 -9.9 -9.999 -99.9 -99.99 -9.99
2019/08/24 03:48 EDT    2.21   3.10 -999 -999 -999 -99.9  78.3 1017.4 25.8  1.017 -99.9 -99.99 -9.99
2019/08/24 03:54 EDT    2.20   3.12 -999 -999 -999 -99.9  78.4 1017.3 26.0  1.017 -99.9 -99.99 -9.99
2019/08/24 04:00 EDT    2.20   3.09 -999 -999 -999 -99.9  78.4 1017.3 26.1  1.017 -99.9 -99.99 -9.99
2019/08/24 04:06 EDT    2.19   3.11 -999 -999 -999 -99.9  78.3 1017.4 26.1  1.017 -99.9 -99.99 -9.99
2019/08/24 04:12 EDT    2.18   3.09 -999 -999 -999 -99.9  78.6 1017.4 25.5  1.017 -99.9 -99.99 -9.99
2019/08/24 04:18 EDT    2.16   3.06 -999 -999 -999 -99.9  78.6 1017.3 25.6  1.017 -99.9 -99.99 -9.99
2019/08/24 04:24 EDT    2.15   3.05 -999 -999 -999 -99.9  78.6 1017.3 25.6  1.017 -99.9 -99.99 -9.99
2019/08/24 04:30 EDT    2.13   3.02 -999 -999 -999 -99.9  78.4 1017.3 25.7  1.017 -99.9 -99.99 -9.99
2019/08/24 04:36 EDT    2.11   3.03 -999 -999 -999 -99.9  78.4 1017.3 25.7  1.017 -99.9 -99.99 -9.99
2019/08/24 04:42 EDT    2.09   2.99 -999 -999 -999 -99.9  78.3 1017.3 25.8  1.017 -99.9 -99.99 -9.99
2019/08/24 04:48 EDT    2.07   2.97 -999 -999 -999 -99.9  78.1 1017.4 26.0  1.017 -99.9 -99.99 -9.99
2019/08/24 04:54 EDT    2.04   2.96 -999 -999 -999 -99.9  77.9 1017.4 26.1  1.017 -99.9 -99.99 -9.99
2019/08/24 05:00 EDT    2.02   2.95 -999 -999 -999 -99.9  77.9 1017.4 26.1  1.017 -99.9 -99.99 -9.99
2019/08/24 05:06 EDT    1.99   2.93 -999 -999 -999 -99.9  78.1 1017.5 26.0  1.017 -99.9 -99.99 -9.99
2019/08/24 05:12 EDT    1.96   2.95 -999 -999 -999 -99.9  78.1 1017.6 26.0  1.017 -99.9 -99.99 -9.99
2019/08/24 05:18 EDT    1.93   2.87 -999 -999 -999 -99.9  78.3 1017.6 25.8  1.017 -99.9 -99.99 -9.99
2019/08/24 05:24 EDT    1.89   2.88 -999 -999 -999 -99.9  78.1 1017.5 26.0  1.017 -99.9 -99.99 -9.99
2019/08/24 05:30 EDT    1.86   2.84 -999 -999 -999 -99.9  78.4 1017.4 25.7  1.017 -99.9 -99.99 -9.99
2019/08/24 05:36 EDT    1.82   2.85 -999 -999 -999 -99.9  78.3 1017.5 25.8  1.017 -99.9 -99.99 -9.99
2019/08/24 05:42 EDT    1.78   2.80 -999 -999 -999 -99.9  78.4 1017.5 25.6  1.017 -99.9 -99.99 -9.99
2019/08/24 05:48 EDT    1.75   2.75 -999 -999 -999 -99.9  78.4 1017.5 25.6  1.017 -99.9 -99.99 -9.99
2019/08/24 05:54 EDT    1.71   2.69 -999 -999 -999 -99.9  78.4 1017.5 25.7  1.017 -99.9 -99.99 -9.99
2019/08/24 06:00 EDT    1.67   2.66 -999 -999 -999 -99.9  78.3 1017.5 25.9  1.017 -99.9 -99.99 -9.99
2019/08/24 06:06 EDT    1.63   2.62 -999 -999 -999 -99.9  78.1 1017.6 26.0  1.017 -99.9 -99.99 -9.99
2019/08/24 06:12 EDT    1.58   2.60 -999 -999 -999 -99.9  78.1 1017.9 26.0  1.017 -99.9 -99.99 -9.99
2019/08/24 06:18 EDT    1.54   2.55 -999 -999 -999 -99.9  78.3 1017.9 25.9  1.017 -99.9 -99.99 -9.99
2019/08/24 06:24 EDT    1.50   2.54 -999 -999 -999 -99.9  78.3 1018.0 25.8  1.017 -99.9 -99.99 -9.99
2019/08/24 06:30 EDT    1.45   2.51 -999 -999 -999 -99.9  78.3 1017.9 25.8  1.017 -99.9 -99.99 -9.99
2019/08/24 06:36 EDT    1.41   2.49 -999 -999 -999 -99.9  78.3 1017.9 25.8  1.017 -99.9 -99.99 -9.99
2019/08/24 06:42 EDT    1.36   2.48 -999 -999 -999 -99.9  78.4 1018.0 25.8  1.017 -99.9 -99.99 -9.99
2019/08/24 06:48 EDT    1.32   2.44 -999 -999 -999 -99.9  78.1 1018.0 26.0  1.017 -99.9 -99.99 -9.99
2019/08/24 06:54 EDT    1.28   2.38 -999 -999 -999 -99.9  78.4 1018.2 25.7  1.017 -99.9 -99.99 -9.99
2019/08/24 07:00 EDT    1.23   2.35 -999 -999 -999 -99.9  78.3 1018.1 25.8  1.017 -99.9 -99.99 -9.99
2019/08/24 07:06 EDT    1.19   2.31 -999 -999 -999 -99.9  78.3 1018.2 25.8  1.017 -99.9 -99.99 -9.99
2019/08/24 07:12 EDT    1.14   2.26 -999 -999 -999 -99.9  78.4 1018.3 25.6  1.017 -99.9 -99.99 -9.99
2019/08/24 07:18 EDT    1.10   2.20 -999 -999 -999 -99.9  78.4 1018.4 25.6  1.017 -99.9 -99.99 -9.99
2019/08/24 07:24 EDT    1.06   2.14 -999 -999 -999 -99.9  78.4 1018.6 25.6  1.017 -99.9 -99.99 -9.99
2019/08/24 07:30 EDT    1.01   2.08 -999 -999 -999 -99.9  78.6 1018.6 25.4  1.017 -99.9 -99.99 -9.99
2019/08/24 07:36 EDT    0.97   2.04 -999 -999 -999 -99.9  78.4 1018.6 25.5  1.017 -99.9 -99.99 -9.99
2019/08/24 07:42 EDT    0.93   2.00 -999 -999 -999 -99.9  78.4 1018.7 25.5  1.017 -99.9 -99.99 -9.99
2019/08/24 07:48 EDT    0.89   1.94 -999 -999 -999 -99.9  78.6 1018.8 25.4  1.017 -99.9 -99.99 -9.99
2019/08/24 07:54 EDT    0.85   1.89 -999 -999 -999 -99.9  78.6 1018.9 25.4  1.017 -99.9 -99.99 -9.99
2019/08/24 08:00 EDT    0.82   1.85 -999 -999 -999 -99.9  78.6 1019.0 25.4  1.017 -99.9 -99.99 -9.99
2019/08/24 08:06 EDT    0.78   1.84 -999 -999 -999 -99.9  78.6 1019.1 25.3  1.017 -99.9 -99.99 -9.99
2019/08/24 08:12 EDT    0.75   1.78 -999 -999 -999 -99.9  78.4 1019.3 25.2  1.017 -99.9 -99.99 -9.99
2019/08/24 08:18 EDT    0.71   1.75 -999 -999 -999 -99.9  78.4 1019.4 25.2  1.017 -99.9 -99.99 -9.99
2019/08/24 08:24 EDT    0.68   1.73 -999 -999 -999 -99.9  78.4 1019.3 25.2  1.017 -99.9 -99.99 -9.99
2019/08/24 08:30 EDT    0.65   1.71 -999 -999 -999 -99.9  78.4 1019.3 25.2  1.017 -99.9 -99.99 -9.99
2019/08/24 08:36 EDT    0.62   1.71 -999 -999 -999 -99.9  78.4 1019.3 25.1  1.017 -99.9 -99.99 -9.99
2019/08/24 08:42 EDT    0.60   1.55 -999 -999 -999 -99.9  78.4 1019.6 25.2  1.017 -99.9 -99.99 -9.99
2019/08/24 08:48 EDT    0.57   1.69 -999 -999 -999 -99.9  78.4 1019.5 25.3  1.017 -99.9 -99.99 -9.99
2019/08/24 08:54 EDT    0.55   1.61 -999 -999 -999 -99.9  78.6 1019.4 25.2  1.017 -99.9 -99.99 -9.99
2019/08/24 09:00 EDT    0.53   1.62 -999 -999 -999 -99.9  78.4 1019.4 25.3  1.017 -99.9 -99.99 -9.99
2019/08/24 09:06 EDT    0.51   1.58 -999 -999 -999 -99.9  78.6 1019.3 25.1  1.017 -99.9 -99.99 -9.99
2019/08/24 09:12 EDT    0.50   1.59 -999 -999 -999 -99.9  78.6 1019.4 25.1  1.017 -99.9 -99.99 -9.99
2019/08/24 09:18 EDT    0.49   1.55 -999 -999 -999 -99.9  78.4 1019.5 25.1  1.017 -99.9 -99.99 -9.99
2019/08/24 09:24 EDT    0.47   1.57 -999 -999 -999 -99.9  78.4 1019.5 25.1  1.017 -99.9 -99.99 -9.99
2019/08/24 09:30 EDT    0.47   1.52 -999 -999 -999 -99.9  78.6 1019.6 25.1  1.017 -99.9 -99.99 -9.99
2019/08/24 09:36 EDT    0.46   1.54 -999 -999 -999 -99.9  78.6 1019.7 25.0  1.016 -99.9 -99.99 -9.99
2019/08/24 09:42 EDT    0.46   1.48 -999 -999 -999 -99.9  78.6 1019.8 25.0  1.016 -99.9 -99.99 -9.99
2019/08/24 09:48 EDT    0.46   1.49 -999 -999 -999 -99.9  78.6 1019.8 25.1  1.017 -99.9 -99.99 -9.99
2019/08/24 09:54 EDT    0.46   1.49 -999 -999 -999 -99.9  78.6 1019.8 25.0  1.016 -99.9 -99.99 -9.99
2019/08/24 10:00 EDT    0.46   1.47 -999 -999 -999 -99.9  78.6 1019.9 25.0  1.016 -99.9 -99.99 -9.99
2019/08/24 10:06 EDT    0.47   1.48 -999 -999 -999 -99.9  78.6 1019.9 25.1  1.016 -99.9 -99.99 -9.99
2019/08/24 10:12 EDT    0.48   1.50 -999 -999 -999 -99.9  78.8 1020.0 25.4  1.017 -99.9 -99.99 -9.99
2019/08/24 10:18 EDT    0.49   1.50 -999 -999 -999 -99.9  78.8 1020.1 25.4  1.017 -99.9 -99.99 -9.99
2019/08/24 10:24 EDT    0.51   1.54 -999 -999 -999 -99.9  78.8 1020.1 25.3  1.017 -99.9 -99.99 -9.99
2019/08/24 10:30 EDT    0.52   1.53 -999 -999 -999 -99.9  78.8 1020.1 25.4  1.017 -99.9 -99.99 -9.99
2019/08/24 10:36 EDT    0.54   1.59 -999 -999 -999 -99.9  78.8 1020.1 25.3  1.017 -99.9 -99.99 -9.99
2019/08/24 10:42 EDT    0.57   1.57 -999 -999 -999 -99.9  78.8 1020.0 25.3  1.017 -99.9 -99.99 -9.99
2019/08/24 10:48 EDT    0.59   1.62 -999 -999 -999 -99.9  78.8 1020.0 25.3  1.017 -99.9 -99.99 -9.99
2019/08/24 10:54 EDT    0.62   1.65 -999 -999 -999 -99.9  78.8 1020.0 25.3  1.017 -99.9 -99.99 -9.99
2019/08/24 11:00 EDT    0.65   1.67 -999 -999 -999 -99.9  78.8 1020.2 25.3  1.017 -99.9 -99.99 -9.99
2019/08/24 11:06 EDT    0.68   1.67 -999 -999 -999 -99.9  78.8 1020.3 25.3  1.017 -99.9 -99.99 -9.99
2019/08/24 11:12 EDT    0.71   1.70 -999 -999 -999 -99.9  78.8 1020.2 25.3  1.017 -99.9 -99.99 -9.99
2019/08/24 11:18 EDT    0.75   1.70 -999 -999 -999 -99.9  78.8 1020.2 25.3  1.017 -99.9 -99.99 -9.99
2019/08/24 11:24 EDT    0.79   1.76 -999 -999 -999 -99.9  78.8 1020.2 25.3  1.017 -99.9 -99.99 -9.99
2019/08/24 11:30 EDT    0.83   1.76 -999 -999 -999 -99.9  78.8 1020.3 25.0  1.016 -99.9 -99.99 -9.99
2019/08/24 11:36 EDT    0.87   1.81 -999 -999 -999 -99.9  78.8 1020.3 24.9  1.016 -99.9 -99.99 -9.99
2019/08/24 11:42 EDT    0.91   1.83 -999 -999 -999 -99.9  78.8 1020.2 24.8  1.016 -99.9 -99.99 -9.99
2019/08/24 11:48 EDT    0.96   1.88 -999 -999 -999 -99.9  78.8 1020.2 24.8  1.016 -99.9 -99.99 -9.99
2019/08/24 11:54 EDT    1.01   1.93 -999 -999 -999 -99.9  78.8 1020.2 24.8  1.016 -99.9 -99.99 -9.99
2019/08/24 12:00 EDT    1.06   1.97 -999 -999 -999 -99.9  78.8 1020.2 24.8  1.016 -99.9 -99.99 -9.99
2019/08/24 12:06 EDT    1.11   1.98 -999 -999 -999 -99.9  78.8 1020.2 24.8  1.016 -99.9 -99.99 -9.99
2019/08/24 12:12 EDT    1.16   2.05 -999 -999 -999 -99.9  78.8 1020.2 24.8  1.016 -99.9 -99.99 -9.99
2019/08/24 12:18 EDT    1.21   2.07 -999 -999 -999 -99.9  78.8 1020.3 24.9  1.016 -99.9 -99.99 -9.99
2019/08/24 12:24 EDT    1.26   2.11 -999 -999 -999 -99.9  78.6 1020.2 24.9  1.016 -99.9 -99.99 -9.99
2019/08/24 12:30 EDT    1.32   2.15 -999 -999 -999 -99.9  78.6 1020.2 24.9  1.016 -99.9 -99.99 -9.99
2019/08/24 12:36 EDT    1.37   2.21 -999 -999 -999 -99.9  78.6 1020.1 25.0  1.016 -99.9 -99.99 -9.99
2019/08/24 12:42 EDT    1.43   2.26 -999 -999 -999 -99.9  78.6 1020.2 25.0  1.016 -99.9 -99.99 -9.99
2019/08/24 12:48 EDT    1.48   2.32 -999 -999 -999 -99.9  78.6 1020.1 25.0  1.016 -99.9 -99.99 -9.99
2019/08/24 12:54 EDT    1.54   2.36 -999 -999 -999 -99.9  78.6 1020.0 25.1  1.017 -99.9 -99.99 -9.99
2019/08/24 13:00 EDT    1.59   2.43 -999 -999 -999 -99.9  78.6 1019.9 25.1  1.017 -99.9 -99.99 -9.99
2019/08/24 13:06 EDT    1.65   2.46 -999 -999 -999 -99.9  78.6 1019.9 25.0  1.016 -99.9 -99.99 -9.99
2019/08/24 13:12 EDT    1.71   2.52 -999 -999 -999 -99.9  78.6 1020.1 25.0  1.016 -99.9 -99.99 -9.99
2019/08/24 13:18 EDT    1.76   2.57 -999 -999 -999 -99.9  78.6 1020.1 25.0  1.016 -99.9 -99.99 -9.99
2019/08/24 13:24 EDT    1.82   2.62 -999 -999 -999 -99.9  78.6 1020.2 25.1  1.016 -99.9 -99.99 -9.99
2019/08/24 13:30 EDT    1.87   2.66 -999 -999 -999 -99.9  78.6 1020.2 25.1  1.017 -99.9 -99.99 -9.99
2019/08/24 13:36 EDT    1.92   2.71 -999 -999 -999 -99.9  78.6 1020.1 25.1  1.017 -99.9 -99.99 -9.99
2019/08/24 13:42 EDT    1.98   2.77 -999 -999 -999 -99.9  78.6 1020.2 25.1  1.016 -99.9 -99.99 -9.99
2019/08/24 13:48 EDT    2.03   2.80 -999 -999 -999 -99.9  78.6 1020.1 25.1  1.016 -99.9 -99.99 -9.99
2019/08/24 13:54 EDT    2.08   2.85 -999 -999 -999 -99.9  78.6 1020.1 25.0  1.016 -99.9 -99.99 -9.99
2019/08/24 14:00 EDT    2.13   2.89 -999 -999 -999 -99.9  78.6 1020.3 25.0  1.016 -99.9 -99.99 -9.99
2019/08/24 14:06 EDT    2.18   2.93 -999 -999 -999 -99.9  78.6 1020.2 25.1  1.016 -99.9 -99.99 -9.99
2019/08/24 14:12 EDT    2.22   2.96 -999 -999 -999 -99.9  78.6 1020.2 25.1  1.017 -99.9 -99.99 -9.99
2019/08/24 14:18 EDT    2.27   2.99 -999 -999 -999 -99.9  78.6 1020.1 25.2  1.017 -99.9 -99.99 -9.99
2019/08/24 14:24 EDT    2.31   3.02 -999 -999 -999 -99.9  78.6 1019.9 25.1  1.017 -99.9 -99.99 -9.99
2019/08/24 14:30 EDT    2.35   3.07 -999 -999 -999 -99.9  78.6 1020.0 25.1  1.017 -99.9 -99.99 -9.99
2019/08/24 14:36 EDT    2.39   3.09 -999 -999 -999 -99.9  78.6 1020.0 25.2  1.017 -99.9 -99.99 -9.99
2019/08/24 14:42 EDT    2.43   3.13 -999 -999 -999 -99.9  78.6 1019.9 25.2  1.017 -99.9 -99.99 -9.99
2019/08/24 14:48 EDT    2.47   3.15 -999 -999 -999 -99.9  78.6 1019.9 25.2  1.017 -99.9 -99.99 -9.99
2019/08/24 14:54 EDT    2.50   3.19 -999 -999 -999 -99.9  78.6 1019.9 25.2  1.017 -99.9 -99.99 -9.99
2019/08/24 15:00 EDT    2.53   3.21 -999 -999 -999 -99.9  78.6 1019.9 25.2  1.017 -99.9 -99.99 -9.99
2019/08/24 15:06 EDT    2.56   3.23 -999 -999 -999 -99.9  78.6 1019.9 25.2  1.017 -99.9 -99.99 -9.99
2019/08/24 15:12 EDT    2.59   3.24 -999 -999 -999 -99.9  78.6 1019.7 25.2  1.017 -99.9 -99.99 -9.99
2019/08/24 15:18 EDT    2.61   3.27 -999 -999 -999 -99.9  78.6 1019.7 25.2  1.017 -99.9 -99.99 -9.99
2019/08/24 15:24 EDT    2.63   3.30 -999 -999 -999 -99.9  78.6 1019.8 25.2  1.017 -99.9 -99.99 -9.99
2019/08/24 15:30 EDT    2.65   3.33 -999 -999 -999 -99.9  78.6 1019.9 25.2  1.017 -99.9 -99.99 -9.99
2019/08/24 15:36 EDT    2.67   3.34 -999 -999 -999 -99.9  78.6 1019.7 25.2  1.017 -99.9 -99.99 -9.99
2019/08/24 15:42 EDT    2.69   3.36 -999 -999 -999 -99.9  78.6 1019.7 25.2  1.017 -99.9 -99.99 -9.99
2019/08/24 15:48 EDT    2.70   3.39 -999 -999 -999 -99.9  78.6 1019.7 25.2  1.017 -99.9 -99.99 -9.99
2019/08/24 15:54 EDT    2.71   3.39 -999 -999 -999 -99.9  78.6 1019.6 25.2  1.017 -99.9 -99.99 -9.99
2019/08/24 16:00 EDT    2.71   3.39 -999 -999 -999 -99.9  78.6 1019.6 25.2  1.017 -99.9 -99.99 -9.99
2019/08/24 16:06 EDT    2.72   3.39 -999 -999 -999 -99.9  78.6 1019.6 25.3  1.017 -99.9 -99.99 -9.99
2019/08/24 16:12 EDT    2.72   3.40 -999 -999 -999 -99.9  78.6 1019.6 25.3  1.017 -99.9 -99.99 -9.99
2019/08/24 16:18 EDT    2.72   3.39 -999 -999 -999 -99.9  78.4 1019.7 25.4  1.017 -99.9 -99.99 -9.99
2019/08/24 16:24 EDT    2.72   3.38 -999 -999 -999 -99.9  78.4 1019.6 25.4  1.017 -99.9 -99.99 -9.99
2019/08/24 16:30 EDT    2.71   3.35 -999 -999 -999 -99.9  78.4 1019.6 25.4  1.017 -99.9 -99.99 -9.99
2019/08/24 16:36 EDT    2.71   3.34 -999 -999 -999 -99.9  78.4 1019.6 25.4  1.017 -99.9 -99.99 -9.99
2019/08/24 16:42 EDT    2.70   3.32 -999 -999 -999 -99.9  78.6 1019.6 25.3  1.017 -99.9 -99.99 -9.99
2019/08/24 16:48 EDT    2.68   3.32 -999 -999 -999 -99.9  78.4 1019.7 25.4  1.017 -99.9 -99.99 -9.99
2019/08/24 16:54 EDT    2.67   3.31 -999 -999 -999 -99.9  78.4 1019.7 25.4  1.017 -99.9 -99.99 -9.99
2019/08/24 17:00 EDT    2.65   3.29 -999 -999 -999 -99.9  78.4 1019.7 25.4  1.017 -99.9 -99.99 -9.99
2019/08/24 17:06 EDT    2.63   3.27 -999 -999 -999 -99.9  78.6 1019.7 25.3  1.017 -99.9 -99.99 -9.99
2019/08/24 17:12 EDT    2.61   3.26 -999 -999 -999 -99.9  78.4 1019.7 25.4  1.017 -99.9 -99.99 -9.99
2019/08/24 17:18 EDT    2.59   3.26 -999 -999 -999 -99.9  78.4 1019.6 25.4  1.017 -99.9 -99.99 -9.99
2019/08/24 17:24 EDT    2.56   3.22 -999 -999 -999 -99.9  78.6 1019.5 25.3  1.017 -99.9 -99.99 -9.99
2019/08/24 17:30 EDT    2.53   3.21 -999 -999 -999 -99.9  78.4 1019.5 25.4  1.017 -99.9 -99.99 -9.99
2019/08/24 17:36 EDT    2.51   3.19 -999 -999 -999 -99.9  78.4 1019.5 25.4  1.017 -99.9 -99.99 -9.99
2019/08/24 17:42 EDT    2.47   3.19 -999 -999 -999 -99.9  78.4 1019.5 25.3  1.017 -99.9 -99.99 -9.99
2019/08/24 17:48 EDT    2.44   3.14 -999 -999 -999 -99.9  78.4 1019.6 25.3  1.017 -99.9 -99.99 -9.99
2019/08/24 17:54 EDT    2.41   3.12 -999 -999 -999 -99.9  78.4 1019.6 25.3  1.017 -99.9 -99.99 -9.99
2019/08/24 18:00 EDT    2.37   3.08 -999 -999 -999 -99.9  78.4 1019.6 25.3  1.017 -99.9 -99.99 -9.99
2019/08/24 18:06 EDT    2.33   3.06 -999 -999 -999 -99.9  78.4 1019.5 25.3  1.017 -99.9 -99.99 -9.99
2019/08/24 18:12 EDT    2.29   3.05 -999 -999 -999 -99.9  78.4 1019.4 25.4  1.017 -99.9 -99.99 -9.99
2019/08/24 18:18 EDT    2.25   3.01 -999 -999 -999 -99.9  78.4 1019.4 25.4  1.017 -99.9 -99.99 -9.99
2019/08/24 18:24 EDT    2.21   2.97 -999 -999 -999 -99.9  78.4 1019.3 25.4  1.017 -99.9 -99.99 -9.99
2019/08/24 18:30 EDT    2.17   2.95 -999 -999 -999 -99.9  78.6 1019.4 25.3  1.017 -99.9 -99.99 -9.99
2019/08/24 18:36 EDT    2.12   2.93 -999 -999 -999 -99.9  78.4 1019.4 25.4  1.017 -99.9 -99.99 -9.99
2019/08/24 18:42 EDT    2.08   2.90 -999 -999 -999 -99.9  78.4 1019.4 25.4  1.017 -99.9 -99.99 -9.99
2019/08/24 18:48 EDT    2.03   2.87 -999 -999 -999 -99.9  78.4 1019.4 25.4  1.017 -99.9 -99.99 -9.99
2019/08/24 18:54 EDT    1.99   2.81 -999 -999 -999 -99.9  78.4 1019.5 25.3  1.017 -99.9 -99.99 -9.99
2019/08/24 19:00 EDT    1.94   2.79 -999 -999 -999 -99.9  78.4 1019.6 25.3  1.017 -99.9 -99.99 -9.99
2019/08/24 19:06 EDT    1.89   2.74 -999 -999 -999 -99.9  78.4 1019.7 25.3  1.017 -99.9 -99.99 -9.99
2019/08/24 19:12 EDT    1.84   2.71 -999 -999 -999 -99.9  78.4 1019.7 25.4  1.017 -99.9 -99.99 -9.99
2019/08/24 19:18 EDT    1.79   2.66 -999 -999 -999 -99.9  78.4 1019.8 25.3  1.017 -99.9 -99.99 -9.99
2019/08/24 19:24 EDT    1.75   2.62 -999 -999 -999 -99.9  78.4 1019.8 25.3  1.017 -99.9 -99.99 -9.99
2019/08/24 19:30 EDT    1.70   2.58 -999 -999 -999 -99.9  78.4 1019.8 25.3  1.017 -99.9 -99.99 -9.99
2019/08/24 19:36 EDT    1.65   2.56 -999 -999 -999 -99.9  78.4 1019.8 25.3  1.017 -99.9 -99.99 -9.99
2019/08/24 19:42 EDT    1.60   2.52 -999 -999 -999 -99.9  78.4 1019.8 25.3  1.017 -99.9 -99.99 -9.99
2019/08/24 19:48 EDT    1.55   2.48 -999 -999 -999 -99.9  78.4 1019.8 25.3  1.017 -99.9 -99.99 -9.99
2019/08/24 19:54 EDT    1.50   2.47 -999 -999 -999 -99.9  78.4 1019.9 25.3  1.017 -99.9 -99.99 -9.99
2019/08/24 20:00 EDT    1.45   2.43 -999 -999 -999 -99.9  78.4 1019.9 25.3  1.017 -99.9 -99.99 -9.99
2019/08/24 20:06 EDT    1.40   2.41 -999 -999 -999 -99.9  78.3 1020.0 25.2  1.017 -99.9 -99.99 -9.99
2019/08/24 20:12 EDT    1.36   2.38 -999 -999 -999 -99.9  78.3 1020.0 25.2  1.017 -99.9 -99.99 -9.99
2019/08/24 20:18 EDT    1.31   2.33 -999 -999 -999 -99.9  78.3 1020.0 25.1  1.017 -99.9 -99.99 -9.99
2019/08/24 20:24 EDT    1.26   2.29 -999 -999 -999 -99.9  78.3 1020.0 25.2  1.017 -99.9 -99.99 -9.99
2019/08/24 20:30 EDT    1.22   2.26 -999 -999 -999 -99.9  78.1 1020.0 25.3  1.017 -99.9 -99.99 -9.99
2019/08/24 20:36 EDT    1.17   2.22 -999 -999 -999 -99.9  78.3 1020.0 25.2  1.017 -99.9 -99.99 -9.99
2019/08/24 20:42 EDT    1.13   2.18 -999 -999 -999 -99.9  78.1 1020.1 25.2  1.017 -99.9 -99.99 -9.99
2019/08/24 20:48 EDT    1.09   2.15 -999 -999 -999 -99.9  78.1 1020.1 25.2  1.017 -99.9 -99.99 -9.99
2019/08/24 20:54 EDT    1.05   2.14 -999 -999 -999 -99.9  78.1 1020.2 25.2  1.017 -99.9 -99.99 -9.99
2019/08/24 21:00 EDT    1.01   2.10 -999 -999 -999 -99.9  78.3 1020.4 25.3  1.017 -99.9 -99.99 -9.99
2019/08/24 21:06 EDT    0.97   2.07 -999 -999 -999 -99.9  78.1 1020.5 25.4  1.017 -99.9 -99.99 -9.99
2019/08/24 21:12 EDT    0.93   2.06 -999 -999 -999 -99.9  78.1 1020.5 25.6  1.017 -99.9 -99.99 -9.99
2019/08/24 21:18 EDT    0.90   2.04 -999 -999 -999 -99.9  78.1 1020.4 25.6  1.017 -99.9 -99.99 -9.99
2019/08/24 21:24 EDT    0.87   2.01 -999 -999 -999 -99.9  78.1 1020.4 25.6  1.017 -99.9 -99.99 -9.99
2019/08/24 21:30 EDT    0.83   1.98 -999 -999 -999 -99.9  78.1 1020.4 25.6  1.017 -99.9 -99.99 -9.99
2019/08/24 21:36 EDT    0.80   1.98 -999 -999 -999 -99.9  78.1 1020.5 25.6  1.017 -99.9 -99.99 -9.99
2019/08/24 21:42 EDT    0.78   1.95 -999 -999 -999 -99.9  78.1 1020.6 25.7  1.017 -99.9 -99.99 -9.99
2019/08/24 21:48 EDT    0.75   1.94 -999 -999 -999 -99.9  78.1 1020.6 25.7  1.017 -99.9 -99.99 -9.99
2019/08/24 21:54 EDT    0.73   1.92 -999 -999 -999 -99.9  78.1 1020.6 25.6  1.017 -99.9 -99.99 -9.99
2019/08/24 22:00 EDT    0.71   1.89 -999 -999 -999 -99.9  78.1 1020.6 25.6  1.017 -99.9 -99.99 -9.99
2019/08/24 22:06 EDT    0.69   1.87 -999 -999 -999 -99.9  78.1 1020.6 25.6  1.017 -99.9 -99.99 -9.99
2019/08/24 22:12 EDT    0.67   1.88 -999 -999 -999 -99.9  78.1 1020.6 25.6  1.017 -99.9 -99.99 -9.99
2019/08/24 22:18 EDT    0.66   1.87 -999 -999 -999 -99.9  78.1 1020.5 25.6  1.017 -99.9 -99.99 -9.99
2019/08/24 22:24 EDT    0.64   1.88 -999 -999 -999 -99.9  78.1 1020.4 25.6  1.017 -99.9 -99.99 -9.99
2019/08/24 22:30 EDT    0.63   1.91 -999 -999 -999 -99.9  78.1 1020.3 25.6  1.017 -99.9 -99.99 -9.99
2019/08/24 22:36 EDT    0.62   1.90 -999 -999 -999 -99.9  78.1 1020.6 25.6  1.017 -99.9 -99.99 -9.99
2019/08/24 22:42 EDT    0.62   1.93 -999 -999 -999 -99.9  77.9 1020.7 25.6  1.017 -99.9 -99.99 -9.99
2019/08/24 22:48 EDT    0.62   1.94 -999 -999 -999 -99.9  77.9 1020.7 25.6  1.017 -99.9 -99.99 -9.99
2019/08/24 22:54 EDT    0.61   1.97 -999 -999 -999 -99.9  77.9 1020.7 25.5  1.017 -99.9 -99.99 -9.99
2019/08/24 23:00 EDT    0.62   1.96 -999 -999 -999 -99.9  77.9 1020.7 25.6  1.017 -99.9 -99.99 -9.99
2019/08/24 23:06 EDT    0.62   1.96 -999 -999 -999 -99.9  77.9 1020.5 25.6  1.017 -99.9 -99.99 -9.99
2019/08/24 23:12 EDT    0.63   2.00 -999 -999 -999 -99.9  77.9 1020.5 25.6  1.017 -99.9 -99.99 -9.99
2019/08/24 23:18 EDT    0.64   2.00 -999 -999 -999 -99.9  77.9 1020.5 25.6  1.017 -99.9 -99.99 -9.99
2019/08/24 23:24 EDT    0.65   2.02 -999 -999 -999 -99.9  77.9 1020.6 25.6  1.017 -99.9 -99.99 -9.99
2019/08/24 23:30 EDT    0.66   2.03 -999 -999 -999 -99.9  77.9 1020.6 25.6  1.017 -99.9 -99.99 -9.99
2019/08/24 23:36 EDT    0.67   2.03 -999 -999 -999 -99.9  77.9 1020.6 25.6  1.017 -99.9 -99.99 -9.99
2019/08/24 23:42 EDT    0.69   2.06 -999 -999 -999 -99.9  77.9 1020.6 25.6  1.017 -99.9 -99.99 -9.99
2019/08/24 23:48 EDT    0.71   2.09 -999 -999 -999 -99.9  77.9 1020.5 25.6  1.017 -99.9 -99.99 -9.99
2019/08/24 23:54 EDT    0.73   2.12 -999 -999 -999 -99.9  77.9 1020.5 25.6  1.017 -99.9 -99.99 -9.99
2019/08/25 00:00 EDT    0.76   2.16 -999 -999 -999 -99.9  77.9 1020.4 25.6  1.017 -99.9 -99.99 -9.99
2019/08/25 00:06 EDT    0.78   2.21 -999 -999 -999 -99.9  77.9 1020.4 25.6  1.017 -99.9 -99.99 -9.99
2019/08/25 00:12 EDT    0.81   2.26 -999 -999 -999 -99.9  77.9 1020.4 25.6  1.017 -99.9 -99.99 -9.99
2019/08/25 00:18 EDT    0.84   2.30 -999 -999 -999 -99.9  77.9 1020.3 25.6  1.017 -99.9 -99.99 -9.99
2019/08/25 00:24 EDT    0.87   2.33 -999 -999 -999 -99.9  77.9 1020.3 25.6  1.017 -99.9 -99.99 -9.99
2019/08/25 00:30 EDT    0.91   2.37 -999 -999 -999 -99.9  77.9 1020.3 25.5  1.017 -99.9 -99.99 -9.99
2019/08/25 00:36 EDT    0.94   2.38 -999 -999 -999 -99.9  77.9 1020.4 25.5  1.017 -99.9 -99.99 -9.99
2019/08/25 00:42 EDT    0.98   2.44 -999 -999 -999 -99.9  77.7 1020.4 25.6  1.017 -99.9 -99.99 -9.99
2019/08/25 00:48 EDT    1.01   2.43 -999 -999 -999 -99.9  77.9 1020.3 25.6  1.017 -99.9 -99.99 -9.99
2019/08/25 00:54 EDT    1.05   2.45 -999 -999 -999 -99.9  77.9 1020.3 25.6  1.017 -99.9 -99.99 -9.99
2019/08/25 01:00 EDT    1.09   2.51 -999 -999 -999 -99.9  77.9 1020.3 25.6  1.017 -99.9 -99.99 -9.99
2019/08/25 01:06 EDT    1.13   2.56 -999 -999 -999 -99.9  77.9 1020.1 25.6  1.017 -99.9 -99.99 -9.99
2019/08/25 01:12 EDT    1.17   2.59 -999 -999 -999 -99.9  77.9 1020.0 25.6  1.017 -99.9 -99.99 -9.99
2019/08/25 01:18 EDT    1.22   2.62 -999 -999 -999 -99.9  77.9 1020.1 25.6  1.017 -99.9 -99.99 -9.99
2019/08/25 01:24 EDT    1.26   2.72 -999 -999 -999 -99.9  77.9 1020.1 25.6  1.017 -99.9 -99.99 -9.99
2019/08/25 01:30 EDT    1.30   2.74 -999 -999 -999 -99.9  77.9 1020.2 25.6  1.017 -99.9 -99.99 -9.99
2019/08/25 01:36 EDT    1.34   2.80 -999 -999 -999 -99.9  77.9 1020.2 25.6  1.017 -99.9 -99.99 -9.99
2019/08/25 01:42 EDT    1.39   2.85 -999 -999 -999 -99.9  77.9 1020.2 25.6  1.017 -99.9 -99.99 -9.99
2019/08/25 01:48 EDT    1.43   2.85 -999 -999 -999 -99.9  78.1 1020.2 25.6  1.017 -99.9 -99.99 -9.99
2019/08/25 01:54 EDT    1.47   2.94 -999 -999 -999 -99.9  78.1 1020.0 25.6  1.017 -99.9 -99.99 -9.99
2019/08/25 02:00 EDT    1.52   2.99 -999 -999 -999 -99.9  78.1 1019.9 25.7  1.017 -99.9 -99.99 -9.99
2019/08/25 02:06 EDT    1.56   3.01 -999 -999 -999 -99.9  78.1 1019.7 25.7  1.017 -99.9 -99.99 -9.99
2019/08/25 02:12 EDT    1.60   3.05 -999 -999 -999 -99.9  78.1 1019.6 25.7  1.017 -99.9 -99.99 -9.99
2019/08/25 02:18 EDT    1.65   3.09 -999 -999 -999 -99.9  78.3 1019.6 25.7  1.017 -99.9 -99.99 -9.99
2019/08/25 02:24 EDT    1.69   3.13 -999 -999 -999 -99.9  78.3 1019.6 25.7  1.017 -99.9 -99.99 -9.99
2019/08/25 02:30 EDT    1.73   3.17 -999 -999 -999 -99.9  78.3 1019.6 25.7  1.017 -99.9 -99.99 -9.99
2019/08/25 02:36 EDT    1.77   3.19 -999 -999 -999 -99.9  78.3 1019.5 25.8  1.017 -99.9 -99.99 -9.99
2019/08/25 02:42 EDT    1.81   3.24 -999 -999 -999 -99.9  78.3 1019.4 25.8  1.017 -99.9 -99.99 -9.99
2019/08/25 02:48 EDT    1.84   3.27 -999 -999 -999 -99.9  78.3 1019.5 25.8  1.017 -99.9 -99.99 -9.99
2019/08/25 02:54 EDT    1.88   3.30 -999 -999 -999 -99.9  78.3 1019.4 -9.9 -9.999 -99.9 -99.99 -9.99
2019/08/25 03:00 EDT    1.91   3.33 -999 -999 -999 -99.9  78.3 1019.4 25.8  1.017 -99.9 -99.99 -9.99
2019/08/25 03:06 EDT    1.95   3.37 -999 -999 -999 -99.9  78.1 1019.4 25.8  1.017 -99.9 -99.99 -9.99
2019/08/25 03:12 EDT    1.98   3.40 -999 -999 -999 -99.9  78.1 1019.4 25.9  1.017 -99.9 -99.99 -9.99
2019/08/25 03:18 EDT    2.01   3.47 -999 -999 -999 -99.9  78.1 1019.4 25.9  1.017 -99.9 -99.99 -9.99
2019/08/25 03:24 EDT    2.04   3.45 -999 -999 -999 -99.9  78.1 1019.5 25.9  1.017 -99.9 -99.99 -9.99
2019/08/25 03:30 EDT    2.07   3.47 -999 -999 -999 -99.9  78.1 1019.6 25.8  1.017 -99.9 -99.99 -9.99
2019/08/25 03:36 EDT    2.09   3.54 -999 -999 -999 -99.9  78.1 1019.5 25.8  1.017 -99.9 -99.99 -9.99
2019/08/25 03:42 EDT    2.11   3.57 -999 -999 -999 -99.9  78.1 1019.5 25.8  1.017 -99.9 -99.99 -9.99
2019/08/25 03:48 EDT    2.13   3.59 -999 -999 -999 -99.9  78.1 1019.4 25.8  1.017 -99.9 -99.99 -9.99
2019/08/25 03:54 EDT    2.15   3.54 -999 -999 -999 -99.9  78.1 1019.5 25.8  1.017 -99.9 -99.99 -9.99
2019/08/25 04:00 EDT    2.17   3.57 -999 -999 -999 -99.9  77.9 1019.5 25.8  1.017 -99.9 -99.99 -9.99
2019/08/25 04:06 EDT    2.18   3.54 -999 -999 -999 -99.9  77.9 1019.4 25.8  1.017 -99.9 -99.99 -9.99
2019/08/25 04:12 EDT    2.20   3.58 -999 -999 -999 -99.9  77.9 1019.4 25.7  1.017 -99.9 -99.99 -9.99
2019/08/25 04:18 EDT    2.21   3.58 -999 -999 -999 -99.9  77.9 1019.4 25.7  1.017 -99.9 -99.99 -9.99
2019/08/25 04:24 EDT    2.22   3.60 -999 -999 -999 -99.9  77.9 1019.4 25.7  1.017 -99.9 -99.99 -9.99
2019/08/25 04:30 EDT    2.22   3.61 -999 -999 -999 -99.9  77.9 1019.3 25.8  1.017 -99.9 -99.99 -9.99
2019/08/25 04:36 EDT    2.22   3.60 -999 -999 -999 -99.9  77.9 1019.4 25.8  1.017 -99.9 -99.99 -9.99
2019/08/25 04:42 EDT    2.23   3.60 -999 -999 -999 -99.9  77.9 1019.3 25.8  1.017 -99.9 -99.99 -9.99
2019/08/25 04:48 EDT    2.23   3.60 -999 -999 -999 -99.9  77.9 1019.2 25.8  1.017 -99.9 -99.99 -9.99
2019/08/25 04:54 EDT    2.22   3.61 -999 -999 -999 -99.9  77.9 1019.2 25.9  1.017 -99.9 -99.99 -9.99
2019/08/25 05:00 EDT    2.22   3.63 -999 -999 -999 -99.9  77.9 1019.1 25.9  1.017 -99.9 -99.99 -9.99
2019/08/25 05:06 EDT    2.21   3.62 -999 -999 -999 -99.9  77.9 1019.2 25.9  1.017 -99.9 -99.99 -9.99
2019/08/25 05:12 EDT    2.20   3.61 -999 -999 -999 -99.9  77.9 1019.3 25.9  1.017 -99.9 -99.99 -9.99
2019/08/25 05:18 EDT    2.19   3.58 -999 -999 -999 -99.9  77.9 1019.3 25.8  1.017 -99.9 -99.99 -9.99
2019/08/25 05:24 EDT    2.17   3.58 -999 -999 -999 -99.9  77.9 1019.3 25.9  1.017 -99.9 -99.99 -9.99
2019/08/25 05:30 EDT    2.15   3.56 -999 -999 -999 -99.9  77.9 1019.2 25.9  1.017 -99.9 -99.99 -9.99
2019/08/25 05:36 EDT    2.14   3.57 -999 -999 -999 -99.9  77.9 1019.2 25.8  1.017 -99.9 -99.99 -9.99
2019/08/25 05:42 EDT    2.11   3.53 -999 -999 -999 -99.9  77.9 1019.3 25.9  1.017 -99.9 -99.99 -9.99
2019/08/25 05:48 EDT    2.09   3.52 -999 -999 -999 -99.9  77.9 1019.3 25.9  1.017 -99.9 -99.99 -9.99
2019/08/25 05:54 EDT    2.07   3.48 -999 -999 -999 -99.9  77.9 1019.2 25.9  1.017 -99.9 -99.99 -9.99
2019/08/25 06:00 EDT    2.04   3.46 -999 -999 -999 -99.9  77.9 1019.3 26.0  1.017 -99.9 -99.99 -9.99
2019/08/25 06:06 EDT    2.01   3.43 -999 -999 -999 -99.9  77.9 1019.3 26.0  1.017 -99.9 -99.99 -9.99
2019/08/25 06:12 EDT    1.98   3.41 -999 -999 -999 -99.9  77.9 1019.3 26.0  1.017 -99.9 -99.99 -9.99
2019/08/25 06:18 EDT    1.95   3.38 -999 -999 -999 -99.9  77.9 1019.3 26.0  1.017 -99.9 -99.99 -9.99
2019/08/25 06:24 EDT    1.92   3.34 -999 -999 -999 -99.9  77.7 1019.3 26.1  1.017 -99.9 -99.99 -9.99
2019/08/25 06:30 EDT    1.88   3.32 -999 -999 -999 -99.9  77.7 1019.3 26.0  1.017 -99.9 -99.99 -9.99
2019/08/25 06:36 EDT    1.84   3.28 -999 -999 -999 -99.9  77.7 1019.4 26.0  1.017 -99.9 -99.99 -9.99
2019/08/25 06:42 EDT    1.81   3.25 -999 -999 -999 -99.9  77.9 1019.4 25.9  1.017 -99.9 -99.99 -9.99
2019/08/25 06:48 EDT    1.77   3.22 -999 -999 -999 -99.9  77.9 1019.4 25.9  1.017 -99.9 -99.99 -9.99
2019/08/25 06:54 EDT    1.73   3.17 -999 -999 -999 -99.9  77.9 1019.6 25.9  1.017 -99.9 -99.99 -9.99
2019/08/25 07:00 EDT    1.68   3.13 -999 -999 -999 -99.9  77.7 1019.6 25.9  1.017 -99.9 -99.99 -9.99
2019/08/25 07:06 EDT    1.64   3.09 -999 -999 -999 -99.9  77.7 1019.6 25.9  1.017 -99.9 -99.99 -9.99
2019/08/25 07:12 EDT    1.60   3.05 -999 -999 -999 -99.9  77.7 1019.7 25.9  1.017 -99.9 -99.99 -9.99
2019/08/25 07:18 EDT    1.55   2.99 -999 -999 -999 -99.9  77.7 1019.8 25.8  1.017 -99.9 -99.99 -9.99
2019/08/25 07:24 EDT    1.51   2.94 -999 -999 -999 -99.9  77.7 1019.8 25.8  1.017 -99.9 -99.99 -9.99
2019/08/25 07:30 EDT    1.46   2.90 -999 -999 -999 -99.9  77.7 1019.8 25.8  1.017 -99.9 -99.99 -9.99
2019/08/25 07:36 EDT    1.42   2.85 -999 -999 -999 -99.9  77.7 1019.8 25.8  1.017 -99.9 -99.99 -9.99
2019/08/25 07:42 EDT    1.37   2.81 -999 -999 -999 -99.9  77.5 1019.9 25.8  1.017 -99.9 -99.99 -9.99
2019/08/25 07:48 EDT    1.33   2.76 -999 -999 -999 -99.9  77.5 1019.9 25.8  1.017 -99.9 -99.99 -9.99
2019/08/25 07:54 EDT    1.28   2.71 -999 -999 -999 -99.9  77.5 1020.0 25.9  1.017 -99.9 -99.99 -9.99
2019/08/25 08:00 EDT    1.23   2.65 -999 -999 -999 -99.9  77.5 1019.9 25.9  1.017 -99.9 -99.99 -9.99
2019/08/25 08:06 EDT    1.19   2.60 -999 -999 -999 -99.9  77.5 1019.9 25.8  1.017 -99.9 -99.99 -9.99
2019/08/25 08:12 EDT    1.14   2.55 -999 -999 -999 -99.9  77.5 1020.0 25.7  1.017 -99.9 -99.99 -9.99
2019/08/25 08:18 EDT    1.09   2.52 -999 -999 -999 -99.9  77.5 1020.0 25.7  1.017 -99.9 -99.99 -9.99
2019/08/25 08:24 EDT    1.05   2.46 -999 -999 -999 -99.9  77.5 1019.9 25.8  1.017 -99.9 -99.99 -9.99
2019/08/25 08:30 EDT    1.00   2.43 -999 -999 -999 -99.9  77.5 1019.9 25.8  1.017 -99.9 -99.99 -9.99
2019/08/25 08:36 EDT    0.96   2.38 -999 -999 -999 -99.9  77.5 1019.9 25.8  1.017 -99.9 -99.99 -9.99
2019/08/25 08:42 EDT    0.92   2.34 -999 -999 -999 -99.9  77.5 1020.0 25.8  1.017 -99.9 -99.99 -9.99
2019/08/25 08:48 EDT    0.88   2.29 -999 -999 -999 -99.9  77.4 1020.0 25.8  1.017 -99.9 -99.99 -9.99
2019/08/25 08:54 EDT    0.84   2.25 -999 -999 -999 -99.9  77.4 1020.0 25.8  1.017 -99.9 -99.99 -9.99
2019/08/25 09:00 EDT    0.80   2.21 -999 -999 -999 -99.9  77.4 1020.1 25.8  1.017 -99.9 -99.99 -9.99
2019/08/25 09:06 EDT    0.76   2.16 -999 -999 -999 -99.9  77.4 1020.1 25.8  1.017 -99.9 -99.99 -9.99
2019/08/25 09:12 EDT    0.72   2.12 -999 -999 -999 -99.9  77.4 1020.2 25.8  1.017 -99.9 -99.99 -9.99
2019/08/25 09:18 EDT    0.69   2.08 -999 -999 -999 -99.9  77.4 1020.2 25.8  1.017 -99.9 -99.99 -9.99
2019/08/25 09:24 EDT    0.65   2.04 -999 -999 -999 -99.9  77.4 1020.2 25.9  1.017 -99.9 -99.99 -9.99
2019/08/25 09:30 EDT    0.62   2.00 -999 -999 -999 -99.9  77.4 1020.2 25.9  1.017 -99.9 -99.99 -9.99
2019/08/25 09:36 EDT    0.59   1.96 -999 -999 -999 -99.9  77.4 1020.3 25.9  1.017 -99.9 -99.99 -9.99
2019/08/25 09:42 EDT    0.56   1.92 -999 -999 -999 -99.9  77.4 1020.2 25.9  1.017 -99.9 -99.99 -9.99
2019/08/25 09:48 EDT    0.54   1.89 -999 -999 -999 -99.9  77.4 1020.3 25.9  1.017 -99.9 -99.99 -9.99
2019/08/25 09:54 EDT    0.51   1.86 -999 -999 -999 -99.9  77.4 1020.4 25.9  1.017 -99.9 -99.99 -9.99
2019/08/25 10:00 EDT    0.49   1.84 -999 -999 -999 -99.9  77.4 1020.4 25.9  1.017 -99.9 -99.99 -9.99
2019/08/25 10:06 EDT    0.47   1.82 -999 -999 -999 -99.9  77.4 1020.5 25.9  1.017 -99.9 -99.99 -9.99
2019/08/25 10:12 EDT    0.45   1.80 -999 -999 -999 -99.9  77.4 1020.4 25.9  1.017 -99.9 -99.99 -9.99
2019/08/25 10:18 EDT    0.44   1.78 -999 -999 -999 -99.9  77.4 1020.4 25.9  1.017 -99.9 -99.99 -9.99
2019/08/25 10:24 EDT    0.43   1.76 -999 -999 -999 -99.9  77.4 1020.5 25.9  1.017 -99.9 -99.99 -9.99
2019/08/25 10:30 EDT    0.42   1.75 -999 -999 -999 -99.9  77.4 1020.4 25.8  1.017 -99.9 -99.99 -9.99
2019/08/25 10:36 EDT    0.41   1.74 -999 -999 -999 -99.9  77.4 1020.5 25.8  1.017 -99.9 -99.99 -9.99
2019/08/25 10:42 EDT    0.41   1.73 -999 -999 -999 -99.9  77.2 1020.6 25.8  1.017 -99.9 -99.99 -9.99
2019/08/25 10:48 EDT    0.41   1.73 -999 -999 -999 -99.9  77.2 1020.6 25.8  1.017 -99.9 -99.99 -9.99
2019/08/25 10:54 EDT    0.41   1.74 -999 -999 -999 -99.9  77.2 1020.6 25.9  1.017 -99.9 -99.99 -9.99
2019/08/25 11:00 EDT    0.41   1.75 -999 -999 -999 -99.9  77.2 1020.7 25.8  1.017 -99.9 -99.99 -9.99
2019/08/25 11:06 EDT    0.42   1.76 -999 -999 -999 -99.9  77.0 1020.6 25.7  1.017 -99.9 -99.99 -9.99
2019/08/25 11:12 EDT    0.43   1.78 -999 -999 -999 -99.9  77.0 1020.6 25.7  1.017 -99.9 -99.99 -9.99
2019/08/25 11:18 EDT    0.44   1.80 -999 -999 -999 -99.9  77.2 1020.7 25.7  1.017 -99.9 -99.99 -9.99
2019/08/25 11:24 EDT    0.45   1.81 -999 -999 -999 -99.9  77.2 1020.8 25.8  1.017 -99.9 -99.99 -9.99
2019/08/25 11:30 EDT    0.47   1.82 -999 -999 -999 -99.9  77.2 1020.7 25.7  1.017 -99.9 -99.99 -9.99
2019/08/25 11:36 EDT    0.49   1.83 -999 -999 -999 -99.9  77.2 1020.6 25.7  1.017 -99.9 -99.99 -9.99
2019/08/25 11:42 EDT    0.52   1.85 -999 -999 -999 -99.9  77.2 1020.6 25.8  1.017 -99.9 -99.99 -9.99
2019/08/25 11:48 EDT    0.54   1.88 -999 -999 -999 -99.9  77.2 1020.5 25.7  1.017 -99.9 -99.99 -9.99
2019/08/25 11:54 EDT    0.57   1.90 -999 -999 -999 -99.9  77.2 1020.6 25.7  1.017 -99.9 -99.99 -9.99
2019/08/25 12:00 EDT    0.60   1.92 -999 -999 -999 -99.9  77.2 1020.5 25.8  1.017 -99.9 -99.99 -9.99
2019/08/25 12:06 EDT    0.63   1.95 -999 -999 -999 -99.9  77.2 1020.4 25.7  1.017 -99.9 -99.99 -9.99
2019/08/25 12:12 EDT    0.67   1.98 -999 -999 -999 -99.9  77.2 1020.4 25.6  1.017 -99.9 -99.99 -9.99
2019/08/25 12:18 EDT    0.71   2.02 -999 -999 -999 -99.9  77.2 1020.4 25.7  1.017 -99.9 -99.99 -9.99
2019/08/25 12:24 EDT    0.75   2.05 -999 -999 -999 -99.9  77.2 1020.3 25.6  1.017 -99.9 -99.99 -9.99
2019/08/25 12:30 EDT    0.79   2.09 -999 -999 -999 -99.9  77.2 1020.3 25.7  1.017 -99.9 -99.99 -9.99
2019/08/25 12:36 EDT    0.83   2.14 -999 -999 -999 -99.9  77.4 1020.3 25.7  1.017 -99.9 -99.99 -9.99
2019/08/25 12:42 EDT    0.88   2.18 -999 -999 -999 -99.9  77.4 1020.1 25.8  1.017 -99.9 -99.99 -9.99
2019/08/25 12:48 EDT    0.93   2.23 -999 -999 -999 -99.9  77.2 1020.1 25.6  1.017 -99.9 -99.99 -9.99
2019/08/25 12:54 EDT    0.98   2.28 -999 -999 -999 -99.9  77.2 1020.1 25.6  1.017 -99.9 -99.99 -9.99
2019/08/25 13:00 EDT    1.03   2.34 -999 -999 -999 -99.9  77.2 1020.1 25.6  1.017 -99.9 -99.99 -9.99
2019/08/25 13:06 EDT    1.08   2.37 -999 -999 -999 -99.9  77.2 1020.0 25.6  1.017 -99.9 -99.99 -9.99
2019/08/25 13:12 EDT    1.13   2.43 -999 -999 -999 -99.9  77.2 1020.0 25.6  1.017 -99.9 -99.99 -9.99
2019/08/25 13:18 EDT    1.19   2.48 -999 -999 -999 -99.9  77.2 1020.0 25.6  1.017 -99.9 -99.99 -9.99
2019/08/25 13:24 EDT    1.24   2.53 -999 -999 -999 -99.9  77.4 1020.0 25.6  1.017 -99.9 -99.99 -9.99
2019/08/25 13:30 EDT    1.30   2.58 -999 -999 -999 -99.9  77.4 1020.1 25.6  1.017 -99.9 -99.99 -9.99
2019/08/25 13:36 EDT    1.36   2.63 -999 -999 -999 -99.9  77.4 1020.1 25.6  1.017 -99.9 -99.99 -9.99
2019/08/25 13:42 EDT    1.42   2.69 -999 -999 -999 -99.9  77.4 1020.0 25.5  1.017 -99.9 -99.99 -9.99
2019/08/25 13:48 EDT    1.47   2.76 -999 -999 -999 -99.9  77.4 1019.9 25.6  1.017 -99.9 -99.99 -9.99
2019/08/25 13:54 EDT    1.53   2.82 -999 -999 -999 -99.9  77.5 1019.8 25.6  1.017 -99.9 -99.99 -9.99
2019/08/25 14:00 EDT    1.59   2.88 -999 -999 -999 -99.9  77.5 1019.8 25.7  1.017 -99.9 -99.99 -9.99
2019/08/25 14:06 EDT    1.65   2.94 -999 -999 -999 -99.9  77.5 1019.8 25.6  1.017 -99.9 -99.99 -9.99
2019/08/25 14:12 EDT    1.71   3.00 -999 -999 -999 -99.9  77.5 1019.8 25.7  1.017 -99.9 -99.99 -9.99
2019/08/25 14:18 EDT    1.77   3.06 -999 -999 -999 -99.9  77.5 1019.7 25.7  1.017 -99.9 -99.99 -9.99
2019/08/25 14:24 EDT    1.83   3.12 -999 -999 -999 -99.9  77.5 1019.7 25.7  1.017 -99.9 -99.99 -9.99
2019/08/25 14:30 EDT    1.89   3.17 -999 -999 -999 -99.9  77.5 1019.7 25.7  1.017 -99.9 -99.99 -9.99
2019/08/25 14:36 EDT    1.94   3.23 -999 -999 -999 -99.9  77.5 1019.6 25.7  1.017 -99.9 -99.99 -9.99
2019/08/25 14:42 EDT    2.00   3.28 -999 -999 -999 -99.9  77.5 1019.6 25.6  1.017 -99.9 -99.99 -9.99
2019/08/25 14:48 EDT    2.05   3.34 -999 -999 -999 -99.9  77.5 1019.5 25.6  1.017 -99.9 -99.99 -9.99
2019/08/25 14:54 EDT    2.11   3.38 -999 -999 -999 -99.9  77.5 1019.5 25.6  1.017 -99.9 -99.99 -9.99
2019/08/25 15:00 EDT    2.16   3.46 -999 -999 -999 -99.9  77.4 1019.4 25.6  1.017 -99.9 -99.99 -9.99
2019/08/25 15:06 EDT    2.21   3.49 -999 -999 -999 -99.9  77.5 1019.4 25.6  1.017 -99.9 -99.99 -9.99
2019/08/25 15:12 EDT    2.26   3.55 -999 -999 -999 -99.9  77.5 1019.4 25.6  1.017 -99.9 -99.99 -9.99
2019/08/25 15:18 EDT    2.31   3.59 -999 -999 -999 -99.9  77.5 1019.4 25.7  1.017 -99.9 -99.99 -9.99
2019/08/25 15:24 EDT    2.36   3.65 -999 -999 -999 -99.9  77.4 1019.3 25.7  1.017 -99.9 -99.99 -9.99
2019/08/25 15:30 EDT    2.40   3.66 -999 -999 -999 -99.9  77.4 1019.2 25.6  1.017 -99.9 -99.99 -9.99
2019/08/25 15:36 EDT    2.45   3.70 -999 -999 -999 -99.9  77.4 1019.2 25.7  1.017 -99.9 -99.99 -9.99
2019/08/25 15:42 EDT    2.49   3.75 -999 -999 -999 -99.9  77.4 1019.2 25.7  1.017 -99.9 -99.99 -9.99
2019/08/25 15:48 EDT    2.53   3.81 -999 -999 -999 -99.9  77.4 1019.2 25.7  1.017 -99.9 -99.99 -9.99
2019/08/25 15:54 EDT    2.56   3.83 -999 -999 -999 -99.9  77.4 1019.1 25.8  1.017 -99.9 -99.99 -9.99
2019/08/25 16:00 EDT    2.60   3.89 -999 -999 -999 -99.9  77.4 1019.1 25.8  1.017 -99.9 -99.99 -9.99
2019/08/25 16:06 EDT    2.63   3.87 -999 -999 -999 -99.9  77.2 1019.2 25.9  1.017 -99.9 -99.99 -9.99
2019/08/25 16:12 EDT    2.66   3.95 -999 -999 -999 -99.9  77.4 1019.1 25.8  1.017 -99.9 -99.99 -9.99
2019/08/25 16:18 EDT    2.69   3.92 -999 -999 -999 -99.9  77.2 1019.2 25.8  1.017 -99.9 -99.99 -9.99
2019/08/25 16:24 EDT    2.71   3.98 -999 -999 -999 -99.9  77.4 1019.2 25.7  1.017 -99.9 -99.99 -9.99
2019/08/25 16:30 EDT    2.74   4.00 -999 -999 -999 -99.9  77.4 1019.2 25.8  1.017 -99.9 -99.99 -9.99
2019/08/25 16:36 EDT    2.76   4.02 -999 -999 -999 -99.9  77.4 1019.2 25.7  1.017 -99.9 -99.99 -9.99
2019/08/25 16:42 EDT    2.77   4.05 -999 -999 -999 -99.9  77.4 1019.2 25.7  1.017 -99.9 -99.99 -9.99
2019/08/25 16:48 EDT    2.79   4.04 -999 -999 -999 -99.9  77.4 1019.2 25.9  1.017 -99.9 -99.99 -9.99
2019/08/25 16:54 EDT    2.80   4.07 -999 -999 -999 -99.9  77.4 1019.1 25.9  1.017 -99.9 -99.99 -9.99
2019/08/25 17:00 EDT    2.81   4.08 -999 -999 -999 -99.9  77.4 1019.1 25.9  1.017 -99.9 -99.99 -9.99
2019/08/25 17:06 EDT    2.82   4.10 -999 -999 -999 -99.9  77.2 1019.1 26.0  1.017 -99.9 -99.99 -9.99
2019/08/25 17:12 EDT    2.82   4.10 -999 -999 -999 -99.9  77.0 1019.2 26.1  1.018 -99.9 -99.99 -9.99
2019/08/25 17:18 EDT    2.82   4.10 -999 -999 -999 -99.9  77.0 1019.2 26.1  1.018 -99.9 -99.99 -9.99
2019/08/25 17:24 EDT    2.82   4.09 -999 -999 -999 -99.9  77.0 1019.2 26.0  1.018 -99.9 -99.99 -9.99
2019/08/25 17:30 EDT    2.82   4.11 -999 -999 -999 -99.9  77.2 1019.3 25.9  1.017 -99.9 -99.99 -9.99
2019/08/25 17:36 EDT    2.81   4.09 -999 -999 -999 -99.9  77.4 1019.4 25.8  1.017 -99.9 -99.99 -9.99
2019/08/25 17:42 EDT    2.80   4.09 -999 -999 -999 -99.9  77.4 1019.4 25.8  1.017 -99.9 -99.99 -9.99
2019/08/25 17:48 EDT    2.79   4.09 -999 -999 -999 -99.9  77.4 1019.4 25.8  1.017 -99.9 -99.99 -9.99
2019/08/25 17:54 EDT    2.78   4.08 -999 -999 -999 -99.9  77.2 1019.4 25.9  1.017 -99.9 -99.99 -9.99
2019/08/25 18:00 EDT    2.76   4.07 -999 -999 -999 -99.9  77.2 1019.3 25.9  1.017 -99.9 -99.99 -9.99
2019/08/25 18:06 EDT    2.74   4.07 -999 -999 -999 -99.9  77.2 1019.3 25.9  1.017 -99.9 -99.99 -9.99
2019/08/25 18:12 EDT    2.72   4.07 -999 -999 -999 -99.9  77.2 1019.3 25.9  1.017 -99.9 -99.99 -9.99
2019/08/25 18:18 EDT    2.70   4.06 -999 -999 -999 -99.9  77.2 1019.3 25.9  1.017 -99.9 -99.99 -9.99
2019/08/25 18:24 EDT    2.67   4.06 -999 -999 -999 -99.9  77.2 1019.3 26.0  1.017 -99.9 -99.99 -9.99
2019/08/25 18:30 EDT    2.64   4.02 -999 -999 -999 -99.9  76.8 1019.4 26.2  1.018 -99.9 -99.99 -9.99
2019/08/25 18:36 EDT    2.61   4.01 -999 -999 -999 -99.9  77.0 1019.4 26.0  1.018 -99.9 -99.99 -9.99
2019/08/25 18:42 EDT    2.58   3.98 -999 -999 -999 -99.9  76.8 1019.4 26.3  1.018 -99.9 -99.99 -9.99
2019/08/25 18:48 EDT    2.55   3.96 -999 -999 -999 -99.9  76.8 1019.4 26.2  1.018 -99.9 -99.99 -9.99
2019/08/25 18:54 EDT    2.51   3.94 -999 -999 -999 -99.9  76.8 1019.3 26.2  1.018 -99.9 -99.99 -9.99
2019/08/25 19:00 EDT    2.47   3.92 -999 -999 -999 -99.9  76.8 1019.3 26.1  1.018 -99.9 -99.99 -9.99
2019/08/25 19:06 EDT    2.43   3.90 -999 -999 -999 -99.9  77.0 1019.4 26.0  1.017 -99.9 -99.99 -9.99
2019/08/25 19:12 EDT    2.39   3.88 -999 -999 -999 -99.9  77.0 1019.4 26.0  1.017 -99.9 -99.99 -9.99
2019/08/25 19:18 EDT    2.35   3.85 -999 -999 -999 -99.9  77.2 1019.4 25.9  1.017 -99.9 -99.99 -9.99
2019/08/25 19:24 EDT    2.31   3.83 -999 -999 -999 -99.9  77.2 1019.3 25.9  1.017 -99.9 -99.99 -9.99
2019/08/25 19:30 EDT    2.26   3.78 -999 -999 -999 -99.9  77.0 1019.2 26.0  1.017 -99.9 -99.99 -9.99
2019/08/25 19:36 EDT    2.21   3.72 -999 -999 -999 -99.9  76.8 1019.2 26.1  1.018 -99.9 -99.99 -9.99
2019/08/25 19:42 EDT    2.16   3.71 -999 -999 -999 -99.9  76.6 1019.2 26.3  1.018 -99.9 -99.99 -9.99
2019/08/25 19:48 EDT    2.12   3.65 -999 -999 -999 -99.9  76.8 1019.3 26.1  1.018 -99.9 -99.99 -9.99
2019/08/25 19:54 EDT    2.07   3.63 -999 -999 -999 -99.9  76.8 1019.4 26.1  1.018 -99.9 -99.99 -9.99
2019/08/25 20:00 EDT    2.01   3.58 -999 -999 -999 -99.9  77.0 1019.4 26.0  1.017 -99.9 -99.99 -9.99
2019/08/25 20:06 EDT    1.96   3.54 -999 -999 -999 -99.9  77.0 1019.6 26.0  1.017 -99.9 -99.99 -9.99
2019/08/25 20:12 EDT    1.91   3.49 -999 -999 -999 -99.9  76.8 1019.5 26.0  1.018 -99.9 -99.99 -9.99
2019/08/25 20:18 EDT    1.86   3.49 -999 -999 -999 -99.9  76.8 1019.5 26.0  1.017 -99.9 -99.99 -9.99
2019/08/25 20:24 EDT    1.80   3.44 -999 -999 -999 -99.9  76.8 1019.5 26.0  1.017 -99.9 -99.99 -9.99
2019/08/25 20:30 EDT    1.75   3.42 -999 -999 -999 -99.9  76.8 1019.6 25.9  1.017 -99.9 -99.99 -9.99
2019/08/25 20:36 EDT    1.69   3.37 -999 -999 -999 -99.9  76.8 1019.7 25.9  1.017 -99.9 -99.99 -9.99
2019/08/25 20:42 EDT    1.64   3.33 -999 -999 -999 -99.9  76.8 1019.8 25.9  1.017 -99.9 -99.99 -9.99
2019/08/25 20:48 EDT    1.59   3.29 -999 -999 -999 -99.9  76.8 1020.0 25.8  1.017 -99.9 -99.99 -9.99
2019/08/25 20:54 EDT    1.53   3.24 -999 -999 -999 -99.9  76.8 1020.1 25.9  1.017 -99.9 -99.99 -9.99
2019/08/25 21:00 EDT    1.48   3.19 -999 -999 -999 -99.9  76.8 1020.1 25.9  1.017 -99.9 -99.99 -9.99
2019/08/25 21:06 EDT    1.42   3.13 -999 -999 -999 -99.9  76.8 1020.1 25.9  1.017 -99.9 -99.99 -9.99
2019/08/25 21:12 EDT    1.37   3.07 -999 -999 -999 -99.9  76.8 1020.1 25.9  1.017 -99.9 -99.99 -9.99
2019/08/25 21:18 EDT    1.32   3.02 -999 -999 -999 -99.9  76.8 1020.2 25.9  1.017 -99.9 -99.99 -9.99
2019/08/25 21:24 EDT    1.27   2.96 -999 -999 -999 -99.9  76.8 1020.1 25.9  1.017 -99.9 -99.99 -9.99
2019/08/25 21:30 EDT    1.22   2.90 -999 -999 -999 -99.9  76.8 1020.1 25.9  1.017 -99.9 -99.99 -9.99
2019/08/25 21:36 EDT    1.17 -99.99 -999 -999 -999 -99.9 -99.9 -999.9 -9.9 -9.999 -99.9 -99.99 -9.99
2019/08/25 21:42 EDT    1.12 -99.99 -999 -999 -999 -99.9 -99.9 -999.9 -9.9 -9.999 -99.9 -99.99 -9.99
Notice: This station is currently in high water condition.

Revised: 08/08/2018
NOAA / National Ocean Service
Web site owner: Center for Operational Oceanographic Products and Services